<?xml version="1.0" encoding="UTF-8" standalone="no" ?>
<gpx xmlns="http://www.topografix.com/GPX/1/1" xmlns:xsi="http://www.w3.org/2001/XMLSchema-instance" xsi:schemaLocation="http://www.topografix.com/GPX/1/1 http://www.topografix.com/GPX/1/1/gpx.xsd" version="1.1" creator="VisuGPX - https://www.visugpx.com">
  <metadata>
    <name>rando ancerville 2018.gpx</name>
  </metadata>
  <trk>
    <name><![CDATA[rando ancerville 2018.gpx]]></name>
    <trkseg>
      <trkpt lat="48.61605" lon="5.01077">
        <ele>150.5</ele>
        <time>2018-09-16T06:30:45Z</time>
      </trkpt>
      <trkpt lat="48.61597" lon="5.01082">
        <ele>149.476</ele>
        <time>2018-09-16T06:30:49Z</time>
      </trkpt>
      <trkpt lat="48.61564" lon="5.01062">
        <ele>148.081</ele>
        <time>2018-09-16T06:31:19Z</time>
      </trkpt>
      <trkpt lat="48.61544" lon="5.0106">
        <ele>147.748</ele>
        <time>2018-09-16T06:31:24Z</time>
      </trkpt>
      <trkpt lat="48.61518" lon="5.01064">
        <ele>147.206</ele>
        <time>2018-09-16T06:31:29Z</time>
      </trkpt>
      <trkpt lat="48.61493" lon="5.01051">
        <ele>145.922</ele>
        <time>2018-09-16T06:31:34Z</time>
      </trkpt>
      <trkpt lat="48.61469" lon="5.01039">
        <ele>145.518</ele>
        <time>2018-09-16T06:31:39Z</time>
      </trkpt>
      <trkpt lat="48.6144" lon="5.01014">
        <ele>144.659</ele>
        <time>2018-09-16T06:31:44Z</time>
      </trkpt>
      <trkpt lat="48.61416" lon="5.00992">
        <ele>144.546</ele>
        <time>2018-09-16T06:31:49Z</time>
      </trkpt>
      <trkpt lat="48.61393" lon="5.00974">
        <ele>144.937</ele>
        <time>2018-09-16T06:31:54Z</time>
      </trkpt>
      <trkpt lat="48.61367" lon="5.00957">
        <ele>144.387</ele>
        <time>2018-09-16T06:31:59Z</time>
      </trkpt>
      <trkpt lat="48.61345" lon="5.00937">
        <ele>144.35</ele>
        <time>2018-09-16T06:32:04Z</time>
      </trkpt>
      <trkpt lat="48.61324" lon="5.00917">
        <ele>144.39</ele>
        <time>2018-09-16T06:32:09Z</time>
      </trkpt>
      <trkpt lat="48.61305" lon="5.009">
        <ele>144.199</ele>
        <time>2018-09-16T06:32:14Z</time>
      </trkpt>
      <trkpt lat="48.61286" lon="5.00885">
        <ele>145.114</ele>
        <time>2018-09-16T06:32:19Z</time>
      </trkpt>
      <trkpt lat="48.61268" lon="5.00877">
        <ele>144.58</ele>
        <time>2018-09-16T06:32:24Z</time>
      </trkpt>
      <trkpt lat="48.61247" lon="5.00867">
        <ele>143.911</ele>
        <time>2018-09-16T06:32:29Z</time>
      </trkpt>
      <trkpt lat="48.61226" lon="5.00857">
        <ele>143.32</ele>
        <time>2018-09-16T06:32:34Z</time>
      </trkpt>
      <trkpt lat="48.61208" lon="5.00846">
        <ele>142.796</ele>
        <time>2018-09-16T06:32:39Z</time>
      </trkpt>
      <trkpt lat="48.6119" lon="5.00836">
        <ele>144.532</ele>
        <time>2018-09-16T06:32:44Z</time>
      </trkpt>
      <trkpt lat="48.6118" lon="5.00831">
        <ele>144.976</ele>
        <time>2018-09-16T06:32:49Z</time>
      </trkpt>
      <trkpt lat="48.61164" lon="5.00825">
        <ele>143.991</ele>
        <time>2018-09-16T06:32:54Z</time>
      </trkpt>
      <trkpt lat="48.61154" lon="5.00785">
        <ele>143.861</ele>
        <time>2018-09-16T06:32:59Z</time>
      </trkpt>
      <trkpt lat="48.61152" lon="5.00749">
        <ele>143.404</ele>
        <time>2018-09-16T06:33:04Z</time>
      </trkpt>
      <trkpt lat="48.6115" lon="5.00722">
        <ele>142.725</ele>
        <time>2018-09-16T06:33:09Z</time>
      </trkpt>
      <trkpt lat="48.61151" lon="5.0069">
        <ele>142.387</ele>
        <time>2018-09-16T06:33:14Z</time>
      </trkpt>
      <trkpt lat="48.61154" lon="5.00659">
        <ele>142.197</ele>
        <time>2018-09-16T06:33:19Z</time>
      </trkpt>
      <trkpt lat="48.61153" lon="5.00628">
        <ele>142.958</ele>
        <time>2018-09-16T06:33:24Z</time>
      </trkpt>
      <trkpt lat="48.61161" lon="5.00602">
        <ele>143.309</ele>
        <time>2018-09-16T06:33:29Z</time>
      </trkpt>
      <trkpt lat="48.61171" lon="5.00574">
        <ele>143.338</ele>
        <time>2018-09-16T06:33:34Z</time>
      </trkpt>
      <trkpt lat="48.61178" lon="5.00549">
        <ele>142.905</ele>
        <time>2018-09-16T06:33:39Z</time>
      </trkpt>
      <trkpt lat="48.61186" lon="5.00509">
        <ele>142.588</ele>
        <time>2018-09-16T06:33:43Z</time>
      </trkpt>
      <trkpt lat="48.61192" lon="5.00482">
        <ele>142.339</ele>
        <time>2018-09-16T06:33:48Z</time>
      </trkpt>
      <trkpt lat="48.61203" lon="5.00448">
        <ele>142.45</ele>
        <time>2018-09-16T06:33:53Z</time>
      </trkpt>
      <trkpt lat="48.61217" lon="5.00416">
        <ele>142.479</ele>
        <time>2018-09-16T06:33:58Z</time>
      </trkpt>
      <trkpt lat="48.61229" lon="5.00385">
        <ele>143.092</ele>
        <time>2018-09-16T06:34:03Z</time>
      </trkpt>
      <trkpt lat="48.61239" lon="5.00357">
        <ele>142.4</ele>
        <time>2018-09-16T06:34:08Z</time>
      </trkpt>
      <trkpt lat="48.61252" lon="5.00324">
        <ele>142.506</ele>
        <time>2018-09-16T06:34:13Z</time>
      </trkpt>
      <trkpt lat="48.61266" lon="5.00297">
        <ele>142.804</ele>
        <time>2018-09-16T06:34:18Z</time>
      </trkpt>
      <trkpt lat="48.61276" lon="5.00272">
        <ele>142.738</ele>
        <time>2018-09-16T06:34:23Z</time>
      </trkpt>
      <trkpt lat="48.61295" lon="5.00242">
        <ele>142.849</ele>
        <time>2018-09-16T06:34:28Z</time>
      </trkpt>
      <trkpt lat="48.61309" lon="5.00202">
        <ele>142.627</ele>
        <time>2018-09-16T06:34:34Z</time>
      </trkpt>
      <trkpt lat="48.61322" lon="5.00175">
        <ele>142.456</ele>
        <time>2018-09-16T06:34:39Z</time>
      </trkpt>
      <trkpt lat="48.61339" lon="5.00146">
        <ele>142.516</ele>
        <time>2018-09-16T06:34:44Z</time>
      </trkpt>
      <trkpt lat="48.61352" lon="5.00124">
        <ele>142.654</ele>
        <time>2018-09-16T06:34:49Z</time>
      </trkpt>
      <trkpt lat="48.61361" lon="5.00111">
        <ele>142.598</ele>
        <time>2018-09-16T06:34:53Z</time>
      </trkpt>
      <trkpt lat="48.61378" lon="5.0009">
        <ele>142.868</ele>
        <time>2018-09-16T06:34:58Z</time>
      </trkpt>
      <trkpt lat="48.61394" lon="5.00075">
        <ele>142.516</ele>
        <time>2018-09-16T06:35:03Z</time>
      </trkpt>
      <trkpt lat="48.61407" lon="5.00059">
        <ele>142.736</ele>
        <time>2018-09-16T06:35:08Z</time>
      </trkpt>
      <trkpt lat="48.61419" lon="5.00045">
        <ele>142.54</ele>
        <time>2018-09-16T06:35:13Z</time>
      </trkpt>
      <trkpt lat="48.61435" lon="5.00027">
        <ele>142.257</ele>
        <time>2018-09-16T06:35:18Z</time>
      </trkpt>
      <trkpt lat="48.61445" lon="5.00014">
        <ele>142.331</ele>
        <time>2018-09-16T06:35:23Z</time>
      </trkpt>
      <trkpt lat="48.61454" lon="5.00006">
        <ele>142.461</ele>
        <time>2018-09-16T06:35:28Z</time>
      </trkpt>
      <trkpt lat="48.61492" lon="4.99961">
        <ele>142.675</ele>
        <time>2018-09-16T06:35:50Z</time>
      </trkpt>
      <trkpt lat="48.61509" lon="4.99939">
        <ele>143.111</ele>
        <time>2018-09-16T06:35:58Z</time>
      </trkpt>
      <trkpt lat="48.61522" lon="4.9993">
        <ele>142.868</ele>
        <time>2018-09-16T06:36:03Z</time>
      </trkpt>
      <trkpt lat="48.61567" lon="4.99923">
        <ele>142.815</ele>
        <time>2018-09-16T06:36:33Z</time>
      </trkpt>
      <trkpt lat="48.61594" lon="4.99935">
        <ele>142.68</ele>
        <time>2018-09-16T06:36:38Z</time>
      </trkpt>
      <trkpt lat="48.61608" lon="4.99947">
        <ele>143.037</ele>
        <time>2018-09-16T06:36:43Z</time>
      </trkpt>
      <trkpt lat="48.61626" lon="4.99968">
        <ele>143.512</ele>
        <time>2018-09-16T06:36:48Z</time>
      </trkpt>
      <trkpt lat="48.61651" lon="4.99977">
        <ele>143.388</ele>
        <time>2018-09-16T06:36:53Z</time>
      </trkpt>
      <trkpt lat="48.61668" lon="5.00006">
        <ele>143.605</ele>
        <time>2018-09-16T06:36:58Z</time>
      </trkpt>
      <trkpt lat="48.61686" lon="5.00039">
        <ele>143.779</ele>
        <time>2018-09-16T06:37:03Z</time>
      </trkpt>
      <trkpt lat="48.61706" lon="5.00069">
        <ele>144.112</ele>
        <time>2018-09-16T06:37:08Z</time>
      </trkpt>
      <trkpt lat="48.61725" lon="5.00097">
        <ele>143.972</ele>
        <time>2018-09-16T06:37:13Z</time>
      </trkpt>
      <trkpt lat="48.61749" lon="5.00132">
        <ele>143.658</ele>
        <time>2018-09-16T06:37:18Z</time>
      </trkpt>
      <trkpt lat="48.61764" lon="5.00175">
        <ele>143.692</ele>
        <time>2018-09-16T06:37:23Z</time>
      </trkpt>
      <trkpt lat="48.61757" lon="5.00214">
        <ele>144.974</ele>
        <time>2018-09-16T06:37:28Z</time>
      </trkpt>
      <trkpt lat="48.61742" lon="5.00249">
        <ele>145.063</ele>
        <time>2018-09-16T06:37:33Z</time>
      </trkpt>
      <trkpt lat="48.61728" lon="5.00292">
        <ele>145.087</ele>
        <time>2018-09-16T06:37:39Z</time>
      </trkpt>
      <trkpt lat="48.61718" lon="5.00323">
        <ele>144.857</ele>
        <time>2018-09-16T06:37:43Z</time>
      </trkpt>
      <trkpt lat="48.6171" lon="5.00363">
        <ele>145.145</ele>
        <time>2018-09-16T06:37:48Z</time>
      </trkpt>
      <trkpt lat="48.61723" lon="5.00386">
        <ele>145.32</ele>
        <time>2018-09-16T06:37:53Z</time>
      </trkpt>
      <trkpt lat="48.61751" lon="5.00385">
        <ele>145.23</ele>
        <time>2018-09-16T06:37:58Z</time>
      </trkpt>
      <trkpt lat="48.61781" lon="5.00389">
        <ele>145.087</ele>
        <time>2018-09-16T06:38:03Z</time>
      </trkpt>
      <trkpt lat="48.61808" lon="5.00393">
        <ele>145.357</ele>
        <time>2018-09-16T06:38:08Z</time>
      </trkpt>
      <trkpt lat="48.61837" lon="5.00399">
        <ele>145.639</ele>
        <time>2018-09-16T06:38:13Z</time>
      </trkpt>
      <trkpt lat="48.61869" lon="5.004">
        <ele>145.351</ele>
        <time>2018-09-16T06:38:19Z</time>
      </trkpt>
      <trkpt lat="48.61892" lon="5.00401">
        <ele>145.188</ele>
        <time>2018-09-16T06:38:24Z</time>
      </trkpt>
      <trkpt lat="48.6191" lon="5.00385">
        <ele>145.346</ele>
        <time>2018-09-16T06:38:29Z</time>
      </trkpt>
      <trkpt lat="48.61937" lon="5.00341">
        <ele>145.172</ele>
        <time>2018-09-16T06:38:38Z</time>
      </trkpt>
      <trkpt lat="48.61955" lon="5.00311">
        <ele>145.106</ele>
        <time>2018-09-16T06:38:43Z</time>
      </trkpt>
      <trkpt lat="48.61978" lon="5.00285">
        <ele>144.992</ele>
        <time>2018-09-16T06:38:48Z</time>
      </trkpt>
      <trkpt lat="48.62003" lon="5.00272">
        <ele>145.003</ele>
        <time>2018-09-16T06:38:53Z</time>
      </trkpt>
      <trkpt lat="48.62027" lon="5.00252">
        <ele>145.526</ele>
        <time>2018-09-16T06:38:58Z</time>
      </trkpt>
      <trkpt lat="48.62044" lon="5.00227">
        <ele>145.246</ele>
        <time>2018-09-16T06:39:03Z</time>
      </trkpt>
      <trkpt lat="48.62061" lon="5.00198">
        <ele>145.174</ele>
        <time>2018-09-16T06:39:08Z</time>
      </trkpt>
      <trkpt lat="48.62079" lon="5.00174">
        <ele>144.966</ele>
        <time>2018-09-16T06:39:13Z</time>
      </trkpt>
      <trkpt lat="48.621" lon="5.00149">
        <ele>145.005</ele>
        <time>2018-09-16T06:39:18Z</time>
      </trkpt>
      <trkpt lat="48.62116" lon="5.00124">
        <ele>145.056</ele>
        <time>2018-09-16T06:39:23Z</time>
      </trkpt>
      <trkpt lat="48.62127" lon="5.00109">
        <ele>145.095</ele>
        <time>2018-09-16T06:39:28Z</time>
      </trkpt>
      <trkpt lat="48.62143" lon="5.00086">
        <ele>145.325</ele>
        <time>2018-09-16T06:39:33Z</time>
      </trkpt>
      <trkpt lat="48.62162" lon="5.00071">
        <ele>145.333</ele>
        <time>2018-09-16T06:39:38Z</time>
      </trkpt>
      <trkpt lat="48.62179" lon="5.00056">
        <ele>145.637</ele>
        <time>2018-09-16T06:39:43Z</time>
      </trkpt>
      <trkpt lat="48.62197" lon="5.00033">
        <ele>145.476</ele>
        <time>2018-09-16T06:39:48Z</time>
      </trkpt>
      <trkpt lat="48.62215" lon="5.00008">
        <ele>145.27</ele>
        <time>2018-09-16T06:39:53Z</time>
      </trkpt>
      <trkpt lat="48.62231" lon="4.99987">
        <ele>145.447</ele>
        <time>2018-09-16T06:39:58Z</time>
      </trkpt>
      <trkpt lat="48.62248" lon="4.99965">
        <ele>145.325</ele>
        <time>2018-09-16T06:40:03Z</time>
      </trkpt>
      <trkpt lat="48.62264" lon="4.99941">
        <ele>145.299</ele>
        <time>2018-09-16T06:40:08Z</time>
      </trkpt>
      <trkpt lat="48.62285" lon="4.99916">
        <ele>145.494</ele>
        <time>2018-09-16T06:40:13Z</time>
      </trkpt>
      <trkpt lat="48.62304" lon="4.99892">
        <ele>145.698</ele>
        <time>2018-09-16T06:40:18Z</time>
      </trkpt>
      <trkpt lat="48.62325" lon="4.99866">
        <ele>145.51</ele>
        <time>2018-09-16T06:40:23Z</time>
      </trkpt>
      <trkpt lat="48.62344" lon="4.99843">
        <ele>145.333</ele>
        <time>2018-09-16T06:40:28Z</time>
      </trkpt>
      <trkpt lat="48.62362" lon="4.99819">
        <ele>145.048</ele>
        <time>2018-09-16T06:40:33Z</time>
      </trkpt>
      <trkpt lat="48.62383" lon="4.99797">
        <ele>145.024</ele>
        <time>2018-09-16T06:40:37Z</time>
      </trkpt>
      <trkpt lat="48.62392" lon="4.99749">
        <ele>145.132</ele>
        <time>2018-09-16T06:40:45Z</time>
      </trkpt>
      <trkpt lat="48.62402" lon="4.99724">
        <ele>145.241</ele>
        <time>2018-09-16T06:40:50Z</time>
      </trkpt>
      <trkpt lat="48.62411" lon="4.99712">
        <ele>144.894</ele>
        <time>2018-09-16T06:40:55Z</time>
      </trkpt>
      <trkpt lat="48.62426" lon="4.99711">
        <ele>145.05</ele>
        <time>2018-09-16T06:41:00Z</time>
      </trkpt>
      <trkpt lat="48.62445" lon="4.99696">
        <ele>145.19</ele>
        <time>2018-09-16T06:41:05Z</time>
      </trkpt>
      <trkpt lat="48.62466" lon="4.99673">
        <ele>145.05</ele>
        <time>2018-09-16T06:41:10Z</time>
      </trkpt>
      <trkpt lat="48.62487" lon="4.99648">
        <ele>144.672</ele>
        <time>2018-09-16T06:41:15Z</time>
      </trkpt>
      <trkpt lat="48.62507" lon="4.99628">
        <ele>144.863</ele>
        <time>2018-09-16T06:41:20Z</time>
      </trkpt>
      <trkpt lat="48.62523" lon="4.99604">
        <ele>144.324</ele>
        <time>2018-09-16T06:41:25Z</time>
      </trkpt>
      <trkpt lat="48.62549" lon="4.99571">
        <ele>143.954</ele>
        <time>2018-09-16T06:41:31Z</time>
      </trkpt>
      <trkpt lat="48.62569" lon="4.99546">
        <ele>143.269</ele>
        <time>2018-09-16T06:41:36Z</time>
      </trkpt>
      <trkpt lat="48.62591" lon="4.99523">
        <ele>143.174</ele>
        <time>2018-09-16T06:41:41Z</time>
      </trkpt>
      <trkpt lat="48.62613" lon="4.99496">
        <ele>143.003</ele>
        <time>2018-09-16T06:41:48Z</time>
      </trkpt>
      <trkpt lat="48.6263" lon="4.99473">
        <ele>143.143</ele>
        <time>2018-09-16T06:41:53Z</time>
      </trkpt>
      <trkpt lat="48.62647" lon="4.9945">
        <ele>143.185</ele>
        <time>2018-09-16T06:41:58Z</time>
      </trkpt>
      <trkpt lat="48.62663" lon="4.99428">
        <ele>143.209</ele>
        <time>2018-09-16T06:42:03Z</time>
      </trkpt>
      <trkpt lat="48.62677" lon="4.99407">
        <ele>142.899</ele>
        <time>2018-09-16T06:42:08Z</time>
      </trkpt>
      <trkpt lat="48.62693" lon="4.99387">
        <ele>142.958</ele>
        <time>2018-09-16T06:42:13Z</time>
      </trkpt>
      <trkpt lat="48.6271" lon="4.9936">
        <ele>143.267</ele>
        <time>2018-09-16T06:42:18Z</time>
      </trkpt>
      <trkpt lat="48.62727" lon="4.99336">
        <ele>142.984</ele>
        <time>2018-09-16T06:42:23Z</time>
      </trkpt>
      <trkpt lat="48.62741" lon="4.99312">
        <ele>143.449</ele>
        <time>2018-09-16T06:42:28Z</time>
      </trkpt>
      <trkpt lat="48.62757" lon="4.99287">
        <ele>143.069</ele>
        <time>2018-09-16T06:42:33Z</time>
      </trkpt>
      <trkpt lat="48.6277" lon="4.99262">
        <ele>143.433</ele>
        <time>2018-09-16T06:42:38Z</time>
      </trkpt>
      <trkpt lat="48.62783" lon="4.9924">
        <ele>143.116</ele>
        <time>2018-09-16T06:42:43Z</time>
      </trkpt>
      <trkpt lat="48.62795" lon="4.99213">
        <ele>143.018</ele>
        <time>2018-09-16T06:42:48Z</time>
      </trkpt>
      <trkpt lat="48.62804" lon="4.99191">
        <ele>143.209</ele>
        <time>2018-09-16T06:42:53Z</time>
      </trkpt>
      <trkpt lat="48.6281" lon="4.99175">
        <ele>143.423</ele>
        <time>2018-09-16T06:42:58Z</time>
      </trkpt>
      <trkpt lat="48.62817" lon="4.99159">
        <ele>143.076</ele>
        <time>2018-09-16T06:43:03Z</time>
      </trkpt>
      <trkpt lat="48.62829" lon="4.99166">
        <ele>143.729</ele>
        <time>2018-09-16T06:43:08Z</time>
      </trkpt>
      <trkpt lat="48.62841" lon="4.99177">
        <ele>143.341</ele>
        <time>2018-09-16T06:43:13Z</time>
      </trkpt>
      <trkpt lat="48.62853" lon="4.99192">
        <ele>143.433</ele>
        <time>2018-09-16T06:43:18Z</time>
      </trkpt>
      <trkpt lat="48.6287" lon="4.99188">
        <ele>143.46</ele>
        <time>2018-09-16T06:43:23Z</time>
      </trkpt>
      <trkpt lat="48.6288" lon="4.99167">
        <ele>143.116</ele>
        <time>2018-09-16T06:43:28Z</time>
      </trkpt>
      <trkpt lat="48.62889" lon="4.99155">
        <ele>143.047</ele>
        <time>2018-09-16T06:43:33Z</time>
      </trkpt>
      <trkpt lat="48.62901" lon="4.99164">
        <ele>143.658</ele>
        <time>2018-09-16T06:43:38Z</time>
      </trkpt>
      <trkpt lat="48.62919" lon="4.99181">
        <ele>144.358</ele>
        <time>2018-09-16T06:43:43Z</time>
      </trkpt>
      <trkpt lat="48.62931" lon="4.99198">
        <ele>145.819</ele>
        <time>2018-09-16T06:43:48Z</time>
      </trkpt>
      <trkpt lat="48.62942" lon="4.99214">
        <ele>147.391</ele>
        <time>2018-09-16T06:43:53Z</time>
      </trkpt>
      <trkpt lat="48.62949" lon="4.99237">
        <ele>148.755</ele>
        <time>2018-09-16T06:43:58Z</time>
      </trkpt>
      <trkpt lat="48.62957" lon="4.99252">
        <ele>150.504</ele>
        <time>2018-09-16T06:44:03Z</time>
      </trkpt>
      <trkpt lat="48.62963" lon="4.99267">
        <ele>151.616</ele>
        <time>2018-09-16T06:44:08Z</time>
      </trkpt>
      <trkpt lat="48.62969" lon="4.99282">
        <ele>152.501</ele>
        <time>2018-09-16T06:44:13Z</time>
      </trkpt>
      <trkpt lat="48.62974" lon="4.99293">
        <ele>153.239</ele>
        <time>2018-09-16T06:44:18Z</time>
      </trkpt>
      <trkpt lat="48.62978" lon="4.99299">
        <ele>154.253</ele>
        <time>2018-09-16T06:44:23Z</time>
      </trkpt>
      <trkpt lat="48.63025" lon="4.99367">
        <ele>165.029</ele>
        <time>2018-09-16T06:45:13Z</time>
      </trkpt>
      <trkpt lat="48.63059" lon="4.99415">
        <ele>166.709</ele>
        <time>2018-09-16T06:45:28Z</time>
      </trkpt>
      <trkpt lat="48.63026" lon="4.99654">
        <ele>185.49</ele>
        <time>2018-09-16T06:47:34Z</time>
      </trkpt>
      <trkpt lat="48.6295" lon="4.9975">
        <ele>188.288</ele>
        <time>2018-09-16T06:48:41Z</time>
      </trkpt>
      <trkpt lat="48.62939" lon="4.9977">
        <ele>188.471</ele>
        <time>2018-09-16T06:48:46Z</time>
      </trkpt>
      <trkpt lat="48.62933" lon="4.99783">
        <ele>187.85</ele>
        <time>2018-09-16T06:48:51Z</time>
      </trkpt>
      <trkpt lat="48.62925" lon="4.99812">
        <ele>188.378</ele>
        <time>2018-09-16T06:49:01Z</time>
      </trkpt>
      <trkpt lat="48.62925" lon="4.9984">
        <ele>189.417</ele>
        <time>2018-09-16T06:49:11Z</time>
      </trkpt>
      <trkpt lat="48.62925" lon="4.99861">
        <ele>190.347</ele>
        <time>2018-09-16T06:49:17Z</time>
      </trkpt>
      <trkpt lat="48.62922" lon="4.9989">
        <ele>190.569</ele>
        <time>2018-09-16T06:49:22Z</time>
      </trkpt>
      <trkpt lat="48.62919" lon="4.99918">
        <ele>191.504</ele>
        <time>2018-09-16T06:49:27Z</time>
      </trkpt>
      <trkpt lat="48.62915" lon="4.99943">
        <ele>191.805</ele>
        <time>2018-09-16T06:49:32Z</time>
      </trkpt>
      <trkpt lat="48.62917" lon="4.99952">
        <ele>193.256</ele>
        <time>2018-09-16T06:49:37Z</time>
      </trkpt>
      <trkpt lat="48.62967" lon="5.00104">
        <ele>197.312</ele>
        <time>2018-09-16T06:50:32Z</time>
      </trkpt>
      <trkpt lat="48.62975" lon="5.0012">
        <ele>198.139</ele>
        <time>2018-09-16T06:50:37Z</time>
      </trkpt>
      <trkpt lat="48.62981" lon="5.00135">
        <ele>197.782</ele>
        <time>2018-09-16T06:50:42Z</time>
      </trkpt>
      <trkpt lat="48.62985" lon="5.00147">
        <ele>198.091</ele>
        <time>2018-09-16T06:50:47Z</time>
      </trkpt>
      <trkpt lat="48.63012" lon="5.00177">
        <ele>198.678</ele>
        <time>2018-09-16T06:51:09Z</time>
      </trkpt>
      <trkpt lat="48.63025" lon="5.00212">
        <ele>199.053</ele>
        <time>2018-09-16T06:51:19Z</time>
      </trkpt>
      <trkpt lat="48.63062" lon="5.00204">
        <ele>199.637</ele>
        <time>2018-09-16T06:51:55Z</time>
      </trkpt>
      <trkpt lat="48.63074" lon="5.00178">
        <ele>199.772</ele>
        <time>2018-09-16T06:52:00Z</time>
      </trkpt>
      <trkpt lat="48.63084" lon="5.00156">
        <ele>199.378</ele>
        <time>2018-09-16T06:52:05Z</time>
      </trkpt>
      <trkpt lat="48.63097" lon="5.00126">
        <ele>199.365</ele>
        <time>2018-09-16T06:52:10Z</time>
      </trkpt>
      <trkpt lat="48.63113" lon="5.00093">
        <ele>199.264</ele>
        <time>2018-09-16T06:52:15Z</time>
      </trkpt>
      <trkpt lat="48.63131" lon="5.00061">
        <ele>198.921</ele>
        <time>2018-09-16T06:52:20Z</time>
      </trkpt>
      <trkpt lat="48.63149" lon="5.0003">
        <ele>198.094</ele>
        <time>2018-09-16T06:52:25Z</time>
      </trkpt>
      <trkpt lat="48.63166" lon="4.99999">
        <ele>197.568</ele>
        <time>2018-09-16T06:52:30Z</time>
      </trkpt>
      <trkpt lat="48.63181" lon="4.9997">
        <ele>196.939</ele>
        <time>2018-09-16T06:52:35Z</time>
      </trkpt>
      <trkpt lat="48.63195" lon="4.99948">
        <ele>196.596</ele>
        <time>2018-09-16T06:52:40Z</time>
      </trkpt>
      <trkpt lat="48.63206" lon="4.99931">
        <ele>196.559</ele>
        <time>2018-09-16T06:52:45Z</time>
      </trkpt>
      <trkpt lat="48.63215" lon="4.99912">
        <ele>196.678</ele>
        <time>2018-09-16T06:52:50Z</time>
      </trkpt>
      <trkpt lat="48.63231" lon="4.99902">
        <ele>196.781</ele>
        <time>2018-09-16T06:52:55Z</time>
      </trkpt>
      <trkpt lat="48.63245" lon="4.99911">
        <ele>197.528</ele>
        <time>2018-09-16T06:53:00Z</time>
      </trkpt>
      <trkpt lat="48.63258" lon="4.99922">
        <ele>198.408</ele>
        <time>2018-09-16T06:53:05Z</time>
      </trkpt>
      <trkpt lat="48.63276" lon="4.99935">
        <ele>199.267</ele>
        <time>2018-09-16T06:53:10Z</time>
      </trkpt>
      <trkpt lat="48.63299" lon="4.99946">
        <ele>199.212</ele>
        <time>2018-09-16T06:53:16Z</time>
      </trkpt>
      <trkpt lat="48.63313" lon="4.99956">
        <ele>199.367</ele>
        <time>2018-09-16T06:53:21Z</time>
      </trkpt>
      <trkpt lat="48.63329" lon="4.99969">
        <ele>198.979</ele>
        <time>2018-09-16T06:53:26Z</time>
      </trkpt>
      <trkpt lat="48.63346" lon="4.99984">
        <ele>199.28</ele>
        <time>2018-09-16T06:53:31Z</time>
      </trkpt>
      <trkpt lat="48.63358" lon="4.99997">
        <ele>198.815</ele>
        <time>2018-09-16T06:53:36Z</time>
      </trkpt>
      <trkpt lat="48.63371" lon="5.00009">
        <ele>198.813</ele>
        <time>2018-09-16T06:53:41Z</time>
      </trkpt>
      <trkpt lat="48.63392" lon="5.00034">
        <ele>198.932</ele>
        <time>2018-09-16T06:53:50Z</time>
      </trkpt>
      <trkpt lat="48.63408" lon="5.00054">
        <ele>198.85</ele>
        <time>2018-09-16T06:53:55Z</time>
      </trkpt>
      <trkpt lat="48.63421" lon="5.00067">
        <ele>198.86</ele>
        <time>2018-09-16T06:54:00Z</time>
      </trkpt>
      <trkpt lat="48.63432" lon="5.00075">
        <ele>199.278</ele>
        <time>2018-09-16T06:54:05Z</time>
      </trkpt>
      <trkpt lat="48.63445" lon="5.00087">
        <ele>199.138</ele>
        <time>2018-09-16T06:54:10Z</time>
      </trkpt>
      <trkpt lat="48.6346" lon="5.00105">
        <ele>199.095</ele>
        <time>2018-09-16T06:54:15Z</time>
      </trkpt>
      <trkpt lat="48.63477" lon="5.00123">
        <ele>198.546</ele>
        <time>2018-09-16T06:54:20Z</time>
      </trkpt>
      <trkpt lat="48.63494" lon="5.00142">
        <ele>198.245</ele>
        <time>2018-09-16T06:54:25Z</time>
      </trkpt>
      <trkpt lat="48.6351" lon="5.00161">
        <ele>198.173</ele>
        <time>2018-09-16T06:54:30Z</time>
      </trkpt>
      <trkpt lat="48.63528" lon="5.00189">
        <ele>197.901</ele>
        <time>2018-09-16T06:54:35Z</time>
      </trkpt>
      <trkpt lat="48.63548" lon="5.00215">
        <ele>198.147</ele>
        <time>2018-09-16T06:54:40Z</time>
      </trkpt>
      <trkpt lat="48.63561" lon="5.00227">
        <ele>197.79</ele>
        <time>2018-09-16T06:54:45Z</time>
      </trkpt>
      <trkpt lat="48.63583" lon="5.00256">
        <ele>197</ele>
        <time>2018-09-16T06:54:50Z</time>
      </trkpt>
      <trkpt lat="48.636" lon="5.00285">
        <ele>195.372</ele>
        <time>2018-09-16T06:54:55Z</time>
      </trkpt>
      <trkpt lat="48.63614" lon="5.00324">
        <ele>194.971</ele>
        <time>2018-09-16T06:55:00Z</time>
      </trkpt>
      <trkpt lat="48.63613" lon="5.00349">
        <ele>194.553</ele>
        <time>2018-09-16T06:55:05Z</time>
      </trkpt>
      <trkpt lat="48.63606" lon="5.00367">
        <ele>193.734</ele>
        <time>2018-09-16T06:55:10Z</time>
      </trkpt>
      <trkpt lat="48.63602" lon="5.0039">
        <ele>193.536</ele>
        <time>2018-09-16T06:55:15Z</time>
      </trkpt>
      <trkpt lat="48.63598" lon="5.00402">
        <ele>193.438</ele>
        <time>2018-09-16T06:55:19Z</time>
      </trkpt>
      <trkpt lat="48.63582" lon="5.00448">
        <ele>190.968</ele>
        <time>2018-09-16T06:55:34Z</time>
      </trkpt>
      <trkpt lat="48.63579" lon="5.0047">
        <ele>189.443</ele>
        <time>2018-09-16T06:55:39Z</time>
      </trkpt>
      <trkpt lat="48.63572" lon="5.00483">
        <ele>188.127</ele>
        <time>2018-09-16T06:55:44Z</time>
      </trkpt>
      <trkpt lat="48.63562" lon="5.00499">
        <ele>186.582</ele>
        <time>2018-09-16T06:55:49Z</time>
      </trkpt>
      <trkpt lat="48.63551" lon="5.00517">
        <ele>186.375</ele>
        <time>2018-09-16T06:55:54Z</time>
      </trkpt>
      <trkpt lat="48.63561" lon="5.00547">
        <ele>185.517</ele>
        <time>2018-09-16T06:55:59Z</time>
      </trkpt>
      <trkpt lat="48.63567" lon="5.00588">
        <ele>183.799</ele>
        <time>2018-09-16T06:56:04Z</time>
      </trkpt>
      <trkpt lat="48.63571" lon="5.00624">
        <ele>183.783</ele>
        <time>2018-09-16T06:56:09Z</time>
      </trkpt>
      <trkpt lat="48.63577" lon="5.00667">
        <ele>182.724</ele>
        <time>2018-09-16T06:56:14Z</time>
      </trkpt>
      <trkpt lat="48.6358" lon="5.00712">
        <ele>181.981</ele>
        <time>2018-09-16T06:56:19Z</time>
      </trkpt>
      <trkpt lat="48.63584" lon="5.00762">
        <ele>181.157</ele>
        <time>2018-09-16T06:56:24Z</time>
      </trkpt>
      <trkpt lat="48.63583" lon="5.00817">
        <ele>180.232</ele>
        <time>2018-09-16T06:56:29Z</time>
      </trkpt>
      <trkpt lat="48.6358" lon="5.00857">
        <ele>180.219</ele>
        <time>2018-09-16T06:56:34Z</time>
      </trkpt>
      <trkpt lat="48.63587" lon="5.00861">
        <ele>179.001</ele>
        <time>2018-09-16T06:56:39Z</time>
      </trkpt>
      <trkpt lat="48.63617" lon="5.00833">
        <ele>179.054</ele>
        <time>2018-09-16T06:56:44Z</time>
      </trkpt>
      <trkpt lat="48.63647" lon="5.00811">
        <ele>179.183</ele>
        <time>2018-09-16T06:56:49Z</time>
      </trkpt>
      <trkpt lat="48.63673" lon="5.00795">
        <ele>179.072</ele>
        <time>2018-09-16T06:56:54Z</time>
      </trkpt>
      <trkpt lat="48.637" lon="5.00779">
        <ele>179.144</ele>
        <time>2018-09-16T06:56:59Z</time>
      </trkpt>
      <trkpt lat="48.63728" lon="5.00768">
        <ele>179.247</ele>
        <time>2018-09-16T06:57:05Z</time>
      </trkpt>
      <trkpt lat="48.63733" lon="5.00804">
        <ele>179.215</ele>
        <time>2018-09-16T06:57:10Z</time>
      </trkpt>
      <trkpt lat="48.63735" lon="5.0085">
        <ele>179.484</ele>
        <time>2018-09-16T06:57:15Z</time>
      </trkpt>
      <trkpt lat="48.63736" lon="5.00879">
        <ele>180.142</ele>
        <time>2018-09-16T06:57:20Z</time>
      </trkpt>
      <trkpt lat="48.63738" lon="5.00921">
        <ele>181.347</ele>
        <time>2018-09-16T06:57:27Z</time>
      </trkpt>
      <trkpt lat="48.63763" lon="5.00944">
        <ele>181.516</ele>
        <time>2018-09-16T06:57:32Z</time>
      </trkpt>
      <trkpt lat="48.63784" lon="5.00912">
        <ele>181.168</ele>
        <time>2018-09-16T06:57:37Z</time>
      </trkpt>
      <trkpt lat="48.63789" lon="5.00874">
        <ele>180.562</ele>
        <time>2018-09-16T06:57:42Z</time>
      </trkpt>
      <trkpt lat="48.63803" lon="5.00884">
        <ele>180.716</ele>
        <time>2018-09-16T06:57:47Z</time>
      </trkpt>
      <trkpt lat="48.6381" lon="5.0092">
        <ele>181.21</ele>
        <time>2018-09-16T06:57:52Z</time>
      </trkpt>
      <trkpt lat="48.63829" lon="5.0094">
        <ele>182.602</ele>
        <time>2018-09-16T06:57:57Z</time>
      </trkpt>
      <trkpt lat="48.63843" lon="5.00923">
        <ele>184.077</ele>
        <time>2018-09-16T06:58:02Z</time>
      </trkpt>
      <trkpt lat="48.63864" lon="5.00914">
        <ele>186.22</ele>
        <time>2018-09-16T06:58:07Z</time>
      </trkpt>
      <trkpt lat="48.63885" lon="5.00905">
        <ele>187.797</ele>
        <time>2018-09-16T06:58:12Z</time>
      </trkpt>
      <trkpt lat="48.63905" lon="5.00909">
        <ele>189.858</ele>
        <time>2018-09-16T06:58:17Z</time>
      </trkpt>
      <trkpt lat="48.63916" lon="5.00933">
        <ele>190.928</ele>
        <time>2018-09-16T06:58:22Z</time>
      </trkpt>
      <trkpt lat="48.63926" lon="5.00957">
        <ele>191.348</ele>
        <time>2018-09-16T06:58:27Z</time>
      </trkpt>
      <trkpt lat="48.63937" lon="5.00978">
        <ele>191.755</ele>
        <time>2018-09-16T06:58:32Z</time>
      </trkpt>
      <trkpt lat="48.63948" lon="5.01002">
        <ele>191.893</ele>
        <time>2018-09-16T06:58:37Z</time>
      </trkpt>
      <trkpt lat="48.63959" lon="5.01037">
        <ele>192.542</ele>
        <time>2018-09-16T06:58:42Z</time>
      </trkpt>
      <trkpt lat="48.63974" lon="5.01067">
        <ele>192.432</ele>
        <time>2018-09-16T06:58:47Z</time>
      </trkpt>
      <trkpt lat="48.63985" lon="5.01094">
        <ele>192.725</ele>
        <time>2018-09-16T06:58:52Z</time>
      </trkpt>
      <trkpt lat="48.63995" lon="5.01116">
        <ele>192.965</ele>
        <time>2018-09-16T06:58:57Z</time>
      </trkpt>
      <trkpt lat="48.64009" lon="5.01138">
        <ele>193.013</ele>
        <time>2018-09-16T06:59:02Z</time>
      </trkpt>
      <trkpt lat="48.64019" lon="5.01158">
        <ele>192.923</ele>
        <time>2018-09-16T06:59:07Z</time>
      </trkpt>
      <trkpt lat="48.6403" lon="5.01189">
        <ele>193.037</ele>
        <time>2018-09-16T06:59:12Z</time>
      </trkpt>
      <trkpt lat="48.64037" lon="5.01218">
        <ele>192.371</ele>
        <time>2018-09-16T06:59:17Z</time>
      </trkpt>
      <trkpt lat="48.64048" lon="5.01242">
        <ele>192.339</ele>
        <time>2018-09-16T06:59:22Z</time>
      </trkpt>
      <trkpt lat="48.6406" lon="5.01278">
        <ele>192.564</ele>
        <time>2018-09-16T06:59:27Z</time>
      </trkpt>
      <trkpt lat="48.64076" lon="5.01307">
        <ele>192.775</ele>
        <time>2018-09-16T06:59:32Z</time>
      </trkpt>
      <trkpt lat="48.64091" lon="5.0135">
        <ele>192.96</ele>
        <time>2018-09-16T06:59:37Z</time>
      </trkpt>
      <trkpt lat="48.64097" lon="5.0139">
        <ele>192.286</ele>
        <time>2018-09-16T06:59:42Z</time>
      </trkpt>
      <trkpt lat="48.64102" lon="5.01433">
        <ele>191.623</ele>
        <time>2018-09-16T06:59:47Z</time>
      </trkpt>
      <trkpt lat="48.64103" lon="5.01471">
        <ele>191.356</ele>
        <time>2018-09-16T06:59:52Z</time>
      </trkpt>
      <trkpt lat="48.64105" lon="5.01507">
        <ele>190.762</ele>
        <time>2018-09-16T06:59:57Z</time>
      </trkpt>
      <trkpt lat="48.64109" lon="5.01547">
        <ele>191.007</ele>
        <time>2018-09-16T07:00:02Z</time>
      </trkpt>
      <trkpt lat="48.64107" lon="5.01584">
        <ele>190.77</ele>
        <time>2018-09-16T07:00:07Z</time>
      </trkpt>
      <trkpt lat="48.64099" lon="5.01626">
        <ele>190.093</ele>
        <time>2018-09-16T07:00:12Z</time>
      </trkpt>
      <trkpt lat="48.6409" lon="5.01678">
        <ele>190.201</ele>
        <time>2018-09-16T07:00:18Z</time>
      </trkpt>
      <trkpt lat="48.64082" lon="5.0172">
        <ele>190.059</ele>
        <time>2018-09-16T07:00:23Z</time>
      </trkpt>
      <trkpt lat="48.64075" lon="5.0176">
        <ele>190.698</ele>
        <time>2018-09-16T07:00:28Z</time>
      </trkpt>
      <trkpt lat="48.64066" lon="5.01812">
        <ele>192.315</ele>
        <time>2018-09-16T07:00:35Z</time>
      </trkpt>
      <trkpt lat="48.64064" lon="5.01846">
        <ele>193.436</ele>
        <time>2018-09-16T07:00:40Z</time>
      </trkpt>
      <trkpt lat="48.64061" lon="5.01878">
        <ele>194.722</ele>
        <time>2018-09-16T07:00:45Z</time>
      </trkpt>
      <trkpt lat="48.6406" lon="5.0191">
        <ele>195.938</ele>
        <time>2018-09-16T07:00:50Z</time>
      </trkpt>
      <trkpt lat="48.64057" lon="5.0194">
        <ele>196.498</ele>
        <time>2018-09-16T07:00:55Z</time>
      </trkpt>
      <trkpt lat="48.64055" lon="5.01972">
        <ele>196.884</ele>
        <time>2018-09-16T07:01:00Z</time>
      </trkpt>
      <trkpt lat="48.64055" lon="5.02003">
        <ele>197.256</ele>
        <time>2018-09-16T07:01:05Z</time>
      </trkpt>
      <trkpt lat="48.64056" lon="5.02035">
        <ele>197.801</ele>
        <time>2018-09-16T07:01:10Z</time>
      </trkpt>
      <trkpt lat="48.64059" lon="5.0207">
        <ele>198.012</ele>
        <time>2018-09-16T07:01:15Z</time>
      </trkpt>
      <trkpt lat="48.64062" lon="5.02101">
        <ele>198.506</ele>
        <time>2018-09-16T07:01:20Z</time>
      </trkpt>
      <trkpt lat="48.64066" lon="5.02133">
        <ele>198.768</ele>
        <time>2018-09-16T07:01:25Z</time>
      </trkpt>
      <trkpt lat="48.64069" lon="5.02167">
        <ele>198.369</ele>
        <time>2018-09-16T07:01:30Z</time>
      </trkpt>
      <trkpt lat="48.64075" lon="5.02207">
        <ele>198.329</ele>
        <time>2018-09-16T07:01:35Z</time>
      </trkpt>
      <trkpt lat="48.64088" lon="5.02237">
        <ele>199.085</ele>
        <time>2018-09-16T07:01:40Z</time>
      </trkpt>
      <trkpt lat="48.64105" lon="5.02265">
        <ele>200.229</ele>
        <time>2018-09-16T07:01:46Z</time>
      </trkpt>
      <trkpt lat="48.64122" lon="5.02296">
        <ele>200.987</ele>
        <time>2018-09-16T07:01:51Z</time>
      </trkpt>
      <trkpt lat="48.64133" lon="5.02326">
        <ele>201.278</ele>
        <time>2018-09-16T07:01:56Z</time>
      </trkpt>
      <trkpt lat="48.64142" lon="5.02364">
        <ele>201.082</ele>
        <time>2018-09-16T07:02:01Z</time>
      </trkpt>
      <trkpt lat="48.64151" lon="5.02399">
        <ele>200.874</ele>
        <time>2018-09-16T07:02:06Z</time>
      </trkpt>
      <trkpt lat="48.64156" lon="5.02429">
        <ele>200.72</ele>
        <time>2018-09-16T07:02:11Z</time>
      </trkpt>
      <trkpt lat="48.64161" lon="5.02455">
        <ele>200.541</ele>
        <time>2018-09-16T07:02:16Z</time>
      </trkpt>
      <trkpt lat="48.64162" lon="5.02484">
        <ele>199.957</ele>
        <time>2018-09-16T07:02:21Z</time>
      </trkpt>
      <trkpt lat="48.64152" lon="5.02518">
        <ele>199.426</ele>
        <time>2018-09-16T07:02:26Z</time>
      </trkpt>
      <trkpt lat="48.64166" lon="5.02522">
        <ele>199.169</ele>
        <time>2018-09-16T07:02:31Z</time>
      </trkpt>
      <trkpt lat="48.64193" lon="5.02512">
        <ele>199.674</ele>
        <time>2018-09-16T07:02:36Z</time>
      </trkpt>
      <trkpt lat="48.64212" lon="5.02504">
        <ele>200.979</ele>
        <time>2018-09-16T07:02:41Z</time>
      </trkpt>
      <trkpt lat="48.64228" lon="5.02497">
        <ele>202.123</ele>
        <time>2018-09-16T07:02:46Z</time>
      </trkpt>
      <trkpt lat="48.6425" lon="5.0249">
        <ele>203.109</ele>
        <time>2018-09-16T07:02:51Z</time>
      </trkpt>
      <trkpt lat="48.64275" lon="5.02486">
        <ele>203.936</ele>
        <time>2018-09-16T07:02:56Z</time>
      </trkpt>
      <trkpt lat="48.64295" lon="5.02479">
        <ele>204.639</ele>
        <time>2018-09-16T07:03:01Z</time>
      </trkpt>
      <trkpt lat="48.64314" lon="5.02472">
        <ele>204.89</ele>
        <time>2018-09-16T07:03:06Z</time>
      </trkpt>
      <trkpt lat="48.64334" lon="5.02467">
        <ele>205.609</ele>
        <time>2018-09-16T07:03:11Z</time>
      </trkpt>
      <trkpt lat="48.64354" lon="5.02459">
        <ele>206.163</ele>
        <time>2018-09-16T07:03:16Z</time>
      </trkpt>
      <trkpt lat="48.64373" lon="5.0245">
        <ele>206.523</ele>
        <time>2018-09-16T07:03:21Z</time>
      </trkpt>
      <trkpt lat="48.64389" lon="5.02442">
        <ele>207.086</ele>
        <time>2018-09-16T07:03:26Z</time>
      </trkpt>
      <trkpt lat="48.64406" lon="5.02428">
        <ele>207.4</ele>
        <time>2018-09-16T07:03:31Z</time>
      </trkpt>
      <trkpt lat="48.6442" lon="5.02415">
        <ele>206.946</ele>
        <time>2018-09-16T07:03:36Z</time>
      </trkpt>
      <trkpt lat="48.64436" lon="5.02409">
        <ele>206.121</ele>
        <time>2018-09-16T07:03:42Z</time>
      </trkpt>
      <trkpt lat="48.64443" lon="5.02412">
        <ele>206.2</ele>
        <time>2018-09-16T07:03:47Z</time>
      </trkpt>
      <trkpt lat="48.64449" lon="5.02422">
        <ele>207.16</ele>
        <time>2018-09-16T07:03:52Z</time>
      </trkpt>
      <trkpt lat="48.6445" lon="5.02437">
        <ele>207.485</ele>
        <time>2018-09-16T07:03:57Z</time>
      </trkpt>
      <trkpt lat="48.64447" lon="5.02451">
        <ele>207.323</ele>
        <time>2018-09-16T07:04:02Z</time>
      </trkpt>
      <trkpt lat="48.64445" lon="5.02467">
        <ele>207.514</ele>
        <time>2018-09-16T07:04:07Z</time>
      </trkpt>
      <trkpt lat="48.64449" lon="5.02485">
        <ele>207.5</ele>
        <time>2018-09-16T07:04:12Z</time>
      </trkpt>
      <trkpt lat="48.64447" lon="5.02516">
        <ele>207.545</ele>
        <time>2018-09-16T07:04:17Z</time>
      </trkpt>
      <trkpt lat="48.64453" lon="5.02534">
        <ele>207.498</ele>
        <time>2018-09-16T07:04:22Z</time>
      </trkpt>
      <trkpt lat="48.64455" lon="5.02544">
        <ele>207.714</ele>
        <time>2018-09-16T07:04:27Z</time>
      </trkpt>
      <trkpt lat="48.64464" lon="5.02552">
        <ele>207.249</ele>
        <time>2018-09-16T07:04:32Z</time>
      </trkpt>
      <trkpt lat="48.6447" lon="5.02559">
        <ele>206.961</ele>
        <time>2018-09-16T07:04:42Z</time>
      </trkpt>
      <trkpt lat="48.64496" lon="5.02588">
        <ele>206.531</ele>
        <time>2018-09-16T07:05:20Z</time>
      </trkpt>
      <trkpt lat="48.64524" lon="5.02621">
        <ele>206.364</ele>
        <time>2018-09-16T07:05:36Z</time>
      </trkpt>
      <trkpt lat="48.64549" lon="5.02618">
        <ele>205.125</ele>
        <time>2018-09-16T07:05:41Z</time>
      </trkpt>
      <trkpt lat="48.64574" lon="5.0261">
        <ele>203.069</ele>
        <time>2018-09-16T07:05:46Z</time>
      </trkpt>
      <trkpt lat="48.64607" lon="5.0261">
        <ele>201.167</ele>
        <time>2018-09-16T07:05:51Z</time>
      </trkpt>
      <trkpt lat="48.64642" lon="5.02602">
        <ele>199.241</ele>
        <time>2018-09-16T07:05:56Z</time>
      </trkpt>
      <trkpt lat="48.64656" lon="5.02603">
        <ele>198.953</ele>
        <time>2018-09-16T07:06:01Z</time>
      </trkpt>
      <trkpt lat="48.6467" lon="5.02598">
        <ele>198.271</ele>
        <time>2018-09-16T07:06:06Z</time>
      </trkpt>
      <trkpt lat="48.64683" lon="5.02595">
        <ele>198.091</ele>
        <time>2018-09-16T07:06:11Z</time>
      </trkpt>
      <trkpt lat="48.64695" lon="5.02595">
        <ele>198.078</ele>
        <time>2018-09-16T07:06:16Z</time>
      </trkpt>
      <trkpt lat="48.6471" lon="5.02597">
        <ele>197.671</ele>
        <time>2018-09-16T07:06:21Z</time>
      </trkpt>
      <trkpt lat="48.64719" lon="5.02598">
        <ele>196.577</ele>
        <time>2018-09-16T07:06:26Z</time>
      </trkpt>
      <trkpt lat="48.64735" lon="5.02597">
        <ele>196.173</ele>
        <time>2018-09-16T07:06:31Z</time>
      </trkpt>
      <trkpt lat="48.64747" lon="5.02594">
        <ele>194.778</ele>
        <time>2018-09-16T07:06:36Z</time>
      </trkpt>
      <trkpt lat="48.64762" lon="5.02587">
        <ele>194.4</ele>
        <time>2018-09-16T07:06:41Z</time>
      </trkpt>
      <trkpt lat="48.64778" lon="5.02585">
        <ele>193.769</ele>
        <time>2018-09-16T07:06:46Z</time>
      </trkpt>
      <trkpt lat="48.64795" lon="5.02584">
        <ele>194.049</ele>
        <time>2018-09-16T07:06:51Z</time>
      </trkpt>
      <trkpt lat="48.64814" lon="5.02585">
        <ele>194.566</ele>
        <time>2018-09-16T07:06:56Z</time>
      </trkpt>
      <trkpt lat="48.6482" lon="5.02588">
        <ele>194.408</ele>
        <time>2018-09-16T07:07:01Z</time>
      </trkpt>
      <trkpt lat="48.64822" lon="5.02591">
        <ele>194.17</ele>
        <time>2018-09-16T07:07:06Z</time>
      </trkpt>
      <trkpt lat="48.64833" lon="5.02586">
        <ele>194.382</ele>
        <time>2018-09-16T07:07:11Z</time>
      </trkpt>
      <trkpt lat="48.64901" lon="5.02564">
        <ele>198.485</ele>
        <time>2018-09-16T07:07:43Z</time>
      </trkpt>
      <trkpt lat="48.64916" lon="5.0256">
        <ele>199.278</ele>
        <time>2018-09-16T07:07:48Z</time>
      </trkpt>
      <trkpt lat="48.64927" lon="5.02552">
        <ele>199.877</ele>
        <time>2018-09-16T07:07:53Z</time>
      </trkpt>
      <trkpt lat="48.64945" lon="5.02549">
        <ele>200.594</ele>
        <time>2018-09-16T07:07:58Z</time>
      </trkpt>
      <trkpt lat="48.64962" lon="5.02543">
        <ele>201.08</ele>
        <time>2018-09-16T07:08:03Z</time>
      </trkpt>
      <trkpt lat="48.64981" lon="5.0253">
        <ele>201.347</ele>
        <time>2018-09-16T07:08:08Z</time>
      </trkpt>
      <trkpt lat="48.65007" lon="5.02537">
        <ele>202.004</ele>
        <time>2018-09-16T07:08:13Z</time>
      </trkpt>
      <trkpt lat="48.65031" lon="5.02526">
        <ele>202.726</ele>
        <time>2018-09-16T07:08:18Z</time>
      </trkpt>
      <trkpt lat="48.65043" lon="5.02524">
        <ele>203.043</ele>
        <time>2018-09-16T07:08:23Z</time>
      </trkpt>
      <trkpt lat="48.65055" lon="5.02522">
        <ele>203.828</ele>
        <time>2018-09-16T07:08:28Z</time>
      </trkpt>
      <trkpt lat="48.65065" lon="5.0252">
        <ele>203.381</ele>
        <time>2018-09-16T07:08:33Z</time>
      </trkpt>
      <trkpt lat="48.65083" lon="5.02509">
        <ele>203.883</ele>
        <time>2018-09-16T07:08:38Z</time>
      </trkpt>
      <trkpt lat="48.65103" lon="5.02509">
        <ele>204.171</ele>
        <time>2018-09-16T07:08:43Z</time>
      </trkpt>
      <trkpt lat="48.65124" lon="5.02501">
        <ele>203.183</ele>
        <time>2018-09-16T07:08:48Z</time>
      </trkpt>
      <trkpt lat="48.65143" lon="5.02493">
        <ele>203.075</ele>
        <time>2018-09-16T07:08:53Z</time>
      </trkpt>
      <trkpt lat="48.65157" lon="5.02487">
        <ele>203.27</ele>
        <time>2018-09-16T07:08:58Z</time>
      </trkpt>
      <trkpt lat="48.65171" lon="5.02481">
        <ele>203.637</ele>
        <time>2018-09-16T07:09:03Z</time>
      </trkpt>
      <trkpt lat="48.65183" lon="5.02474">
        <ele>204.549</ele>
        <time>2018-09-16T07:09:08Z</time>
      </trkpt>
      <trkpt lat="48.65195" lon="5.02468">
        <ele>205.733</ele>
        <time>2018-09-16T07:09:13Z</time>
      </trkpt>
      <trkpt lat="48.65212" lon="5.02462">
        <ele>206.253</ele>
        <time>2018-09-16T07:09:19Z</time>
      </trkpt>
      <trkpt lat="48.65232" lon="5.02456">
        <ele>206.504</ele>
        <time>2018-09-16T07:09:24Z</time>
      </trkpt>
      <trkpt lat="48.65247" lon="5.02455">
        <ele>206.066</ele>
        <time>2018-09-16T07:09:29Z</time>
      </trkpt>
      <trkpt lat="48.65275" lon="5.02451">
        <ele>205.017</ele>
        <time>2018-09-16T07:09:34Z</time>
      </trkpt>
      <trkpt lat="48.65297" lon="5.02447">
        <ele>203.743</ele>
        <time>2018-09-16T07:09:41Z</time>
      </trkpt>
      <trkpt lat="48.65322" lon="5.02442">
        <ele>201.933</ele>
        <time>2018-09-16T07:09:48Z</time>
      </trkpt>
      <trkpt lat="48.65342" lon="5.02431">
        <ele>199.706</ele>
        <time>2018-09-16T07:09:53Z</time>
      </trkpt>
      <trkpt lat="48.65364" lon="5.02422">
        <ele>198.614</ele>
        <time>2018-09-16T07:09:58Z</time>
      </trkpt>
      <trkpt lat="48.65383" lon="5.02412">
        <ele>198.466</ele>
        <time>2018-09-16T07:10:03Z</time>
      </trkpt>
      <trkpt lat="48.65407" lon="5.02406">
        <ele>200.739</ele>
        <time>2018-09-16T07:10:10Z</time>
      </trkpt>
      <trkpt lat="48.65419" lon="5.02398">
        <ele>201.841</ele>
        <time>2018-09-16T07:10:15Z</time>
      </trkpt>
      <trkpt lat="48.65432" lon="5.02384">
        <ele>203.622</ele>
        <time>2018-09-16T07:10:21Z</time>
      </trkpt>
      <trkpt lat="48.65445" lon="5.02384">
        <ele>204.013</ele>
        <time>2018-09-16T07:10:28Z</time>
      </trkpt>
      <trkpt lat="48.65464" lon="5.02382">
        <ele>204.361</ele>
        <time>2018-09-16T07:10:33Z</time>
      </trkpt>
      <trkpt lat="48.65486" lon="5.02387">
        <ele>205.027</ele>
        <time>2018-09-16T07:10:38Z</time>
      </trkpt>
      <trkpt lat="48.65494" lon="5.02394">
        <ele>205.849</ele>
        <time>2018-09-16T07:10:43Z</time>
      </trkpt>
      <trkpt lat="48.65523" lon="5.0238">
        <ele>206.747</ele>
        <time>2018-09-16T07:10:49Z</time>
      </trkpt>
      <trkpt lat="48.65541" lon="5.0237">
        <ele>207.817</ele>
        <time>2018-09-16T07:10:54Z</time>
      </trkpt>
      <trkpt lat="48.65553" lon="5.02366">
        <ele>208.05</ele>
        <time>2018-09-16T07:10:59Z</time>
      </trkpt>
      <trkpt lat="48.65564" lon="5.02364">
        <ele>208.734</ele>
        <time>2018-09-16T07:11:04Z</time>
      </trkpt>
      <trkpt lat="48.65579" lon="5.02357">
        <ele>208.771</ele>
        <time>2018-09-16T07:11:09Z</time>
      </trkpt>
      <trkpt lat="48.65594" lon="5.02349">
        <ele>209.16</ele>
        <time>2018-09-16T07:11:14Z</time>
      </trkpt>
      <trkpt lat="48.65607" lon="5.0234">
        <ele>208.996</ele>
        <time>2018-09-16T07:11:19Z</time>
      </trkpt>
      <trkpt lat="48.65613" lon="5.02338">
        <ele>209.012</ele>
        <time>2018-09-16T07:11:24Z</time>
      </trkpt>
      <trkpt lat="48.65622" lon="5.02336">
        <ele>208.917</ele>
        <time>2018-09-16T07:11:29Z</time>
      </trkpt>
      <trkpt lat="48.65633" lon="5.02331">
        <ele>209.107</ele>
        <time>2018-09-16T07:11:34Z</time>
      </trkpt>
      <trkpt lat="48.65645" lon="5.02332">
        <ele>209.329</ele>
        <time>2018-09-16T07:11:39Z</time>
      </trkpt>
      <trkpt lat="48.65659" lon="5.02328">
        <ele>209.287</ele>
        <time>2018-09-16T07:11:45Z</time>
      </trkpt>
      <trkpt lat="48.65685" lon="5.02318">
        <ele>209.627</ele>
        <time>2018-09-16T07:11:52Z</time>
      </trkpt>
      <trkpt lat="48.65698" lon="5.02312">
        <ele>209.445</ele>
        <time>2018-09-16T07:11:57Z</time>
      </trkpt>
      <trkpt lat="48.65711" lon="5.02308">
        <ele>209.559</ele>
        <time>2018-09-16T07:12:02Z</time>
      </trkpt>
      <trkpt lat="48.65722" lon="5.02308">
        <ele>209.559</ele>
        <time>2018-09-16T07:12:07Z</time>
      </trkpt>
      <trkpt lat="48.65735" lon="5.02303">
        <ele>209.495</ele>
        <time>2018-09-16T07:12:12Z</time>
      </trkpt>
      <trkpt lat="48.65747" lon="5.02298">
        <ele>209.556</ele>
        <time>2018-09-16T07:12:17Z</time>
      </trkpt>
      <trkpt lat="48.65757" lon="5.02295">
        <ele>209.221</ele>
        <time>2018-09-16T07:12:22Z</time>
      </trkpt>
      <trkpt lat="48.65768" lon="5.02293">
        <ele>207.936</ele>
        <time>2018-09-16T07:12:27Z</time>
      </trkpt>
      <trkpt lat="48.65798" lon="5.02271">
        <ele>207.796</ele>
        <time>2018-09-16T07:12:37Z</time>
      </trkpt>
      <trkpt lat="48.65806" lon="5.02262">
        <ele>208.248</ele>
        <time>2018-09-16T07:12:43Z</time>
      </trkpt>
      <trkpt lat="48.6582" lon="5.02252">
        <ele>208.145</ele>
        <time>2018-09-16T07:12:48Z</time>
      </trkpt>
      <trkpt lat="48.65831" lon="5.02246">
        <ele>208.705</ele>
        <time>2018-09-16T07:12:53Z</time>
      </trkpt>
      <trkpt lat="48.65844" lon="5.02237">
        <ele>208.959</ele>
        <time>2018-09-16T07:12:58Z</time>
      </trkpt>
      <trkpt lat="48.65853" lon="5.02236">
        <ele>209.086</ele>
        <time>2018-09-16T07:13:04Z</time>
      </trkpt>
      <trkpt lat="48.65894" lon="5.02198">
        <ele>209.9</ele>
        <time>2018-09-16T07:14:00Z</time>
      </trkpt>
      <trkpt lat="48.65908" lon="5.02187">
        <ele>210.655</ele>
        <time>2018-09-16T07:14:05Z</time>
      </trkpt>
      <trkpt lat="48.65918" lon="5.02165">
        <ele>210.602</ele>
        <time>2018-09-16T07:14:10Z</time>
      </trkpt>
      <trkpt lat="48.65928" lon="5.02148">
        <ele>210.753</ele>
        <time>2018-09-16T07:14:15Z</time>
      </trkpt>
      <trkpt lat="48.6594" lon="5.02153">
        <ele>211.007</ele>
        <time>2018-09-16T07:14:20Z</time>
      </trkpt>
      <trkpt lat="48.65951" lon="5.02153">
        <ele>211.237</ele>
        <time>2018-09-16T07:14:25Z</time>
      </trkpt>
      <trkpt lat="48.65962" lon="5.02157">
        <ele>211.102</ele>
        <time>2018-09-16T07:14:30Z</time>
      </trkpt>
      <trkpt lat="48.65967" lon="5.02152">
        <ele>211.028</ele>
        <time>2018-09-16T07:14:35Z</time>
      </trkpt>
      <trkpt lat="48.65974" lon="5.02146">
        <ele>210.832</ele>
        <time>2018-09-16T07:14:40Z</time>
      </trkpt>
      <trkpt lat="48.65987" lon="5.02134">
        <ele>211.334</ele>
        <time>2018-09-16T07:14:45Z</time>
      </trkpt>
      <trkpt lat="48.65996" lon="5.02128">
        <ele>211.305</ele>
        <time>2018-09-16T07:14:50Z</time>
      </trkpt>
      <trkpt lat="48.6601" lon="5.02131">
        <ele>210.888</ele>
        <time>2018-09-16T07:14:55Z</time>
      </trkpt>
      <trkpt lat="48.66063" lon="5.02118">
        <ele>210.676</ele>
        <time>2018-09-16T07:15:14Z</time>
      </trkpt>
      <trkpt lat="48.66073" lon="5.02115">
        <ele>210.484</ele>
        <time>2018-09-16T07:15:20Z</time>
      </trkpt>
      <trkpt lat="48.66081" lon="5.02113">
        <ele>210.351</ele>
        <time>2018-09-16T07:15:25Z</time>
      </trkpt>
      <trkpt lat="48.66088" lon="5.02122">
        <ele>210.859</ele>
        <time>2018-09-16T07:15:30Z</time>
      </trkpt>
      <trkpt lat="48.66093" lon="5.02128">
        <ele>211.892</ele>
        <time>2018-09-16T07:15:35Z</time>
      </trkpt>
      <trkpt lat="48.66098" lon="5.02144">
        <ele>211.625</ele>
        <time>2018-09-16T07:15:40Z</time>
      </trkpt>
      <trkpt lat="48.66104" lon="5.02168">
        <ele>211.717</ele>
        <time>2018-09-16T07:15:45Z</time>
      </trkpt>
      <trkpt lat="48.66107" lon="5.0219">
        <ele>212.264</ele>
        <time>2018-09-16T07:15:50Z</time>
      </trkpt>
      <trkpt lat="48.66113" lon="5.02222">
        <ele>212.796</ele>
        <time>2018-09-16T07:15:55Z</time>
      </trkpt>
      <trkpt lat="48.66122" lon="5.02251">
        <ele>212.616</ele>
        <time>2018-09-16T07:16:00Z</time>
      </trkpt>
      <trkpt lat="48.66129" lon="5.02262">
        <ele>212.296</ele>
        <time>2018-09-16T07:16:05Z</time>
      </trkpt>
      <trkpt lat="48.66141" lon="5.02274">
        <ele>212.275</ele>
        <time>2018-09-16T07:16:10Z</time>
      </trkpt>
      <trkpt lat="48.66151" lon="5.02279">
        <ele>211.905</ele>
        <time>2018-09-16T07:16:15Z</time>
      </trkpt>
      <trkpt lat="48.66157" lon="5.02286">
        <ele>211.239</ele>
        <time>2018-09-16T07:16:20Z</time>
      </trkpt>
      <trkpt lat="48.66161" lon="5.02285">
        <ele>211.332</ele>
        <time>2018-09-16T07:16:26Z</time>
      </trkpt>
      <trkpt lat="48.66174" lon="5.02276">
        <ele>210.375</ele>
        <time>2018-09-16T07:16:31Z</time>
      </trkpt>
      <trkpt lat="48.66245" lon="5.02211">
        <ele>207.931</ele>
        <time>2018-09-16T07:16:54Z</time>
      </trkpt>
      <trkpt lat="48.66259" lon="5.02204">
        <ele>205.968</ele>
        <time>2018-09-16T07:16:59Z</time>
      </trkpt>
      <trkpt lat="48.66271" lon="5.022">
        <ele>204.914</ele>
        <time>2018-09-16T07:17:04Z</time>
      </trkpt>
      <trkpt lat="48.66283" lon="5.02205">
        <ele>206.042</ele>
        <time>2018-09-16T07:17:10Z</time>
      </trkpt>
      <trkpt lat="48.66296" lon="5.02208">
        <ele>207.234</ele>
        <time>2018-09-16T07:17:15Z</time>
      </trkpt>
      <trkpt lat="48.66305" lon="5.02212">
        <ele>207.746</ele>
        <time>2018-09-16T07:17:20Z</time>
      </trkpt>
      <trkpt lat="48.66395" lon="5.02081">
        <ele>213.601</ele>
        <time>2018-09-16T07:18:51Z</time>
      </trkpt>
      <trkpt lat="48.66409" lon="5.02059">
        <ele>213.752</ele>
        <time>2018-09-16T07:18:56Z</time>
      </trkpt>
      <trkpt lat="48.66419" lon="5.02033">
        <ele>213.107</ele>
        <time>2018-09-16T07:19:01Z</time>
      </trkpt>
      <trkpt lat="48.66427" lon="5.02013">
        <ele>212.827</ele>
        <time>2018-09-16T07:19:06Z</time>
      </trkpt>
      <trkpt lat="48.66438" lon="5.01998">
        <ele>213.052</ele>
        <time>2018-09-16T07:19:11Z</time>
      </trkpt>
      <trkpt lat="48.66448" lon="5.01982">
        <ele>213.158</ele>
        <time>2018-09-16T07:19:16Z</time>
      </trkpt>
      <trkpt lat="48.66464" lon="5.01956">
        <ele>212.846</ele>
        <time>2018-09-16T07:19:21Z</time>
      </trkpt>
      <trkpt lat="48.66473" lon="5.0193">
        <ele>212.698</ele>
        <time>2018-09-16T07:19:26Z</time>
      </trkpt>
      <trkpt lat="48.6648" lon="5.01911">
        <ele>212.811</ele>
        <time>2018-09-16T07:19:31Z</time>
      </trkpt>
      <trkpt lat="48.66489" lon="5.01879">
        <ele>212.819</ele>
        <time>2018-09-16T07:19:36Z</time>
      </trkpt>
      <trkpt lat="48.66512" lon="5.01845">
        <ele>211.865</ele>
        <time>2018-09-16T07:19:41Z</time>
      </trkpt>
      <trkpt lat="48.66529" lon="5.01814">
        <ele>211.506</ele>
        <time>2018-09-16T07:19:46Z</time>
      </trkpt>
      <trkpt lat="48.6655" lon="5.0177">
        <ele>211.292</ele>
        <time>2018-09-16T07:19:51Z</time>
      </trkpt>
      <trkpt lat="48.6657" lon="5.01729">
        <ele>210.497</ele>
        <time>2018-09-16T07:19:56Z</time>
      </trkpt>
      <trkpt lat="48.66589" lon="5.01696">
        <ele>210.938</ele>
        <time>2018-09-16T07:20:01Z</time>
      </trkpt>
      <trkpt lat="48.666" lon="5.01677">
        <ele>210.568</ele>
        <time>2018-09-16T07:20:06Z</time>
      </trkpt>
      <trkpt lat="48.66612" lon="5.0165">
        <ele>209.794</ele>
        <time>2018-09-16T07:20:11Z</time>
      </trkpt>
      <trkpt lat="48.66628" lon="5.0164">
        <ele>210.021</ele>
        <time>2018-09-16T07:20:16Z</time>
      </trkpt>
      <trkpt lat="48.66637" lon="5.01611">
        <ele>209.707</ele>
        <time>2018-09-16T07:20:21Z</time>
      </trkpt>
      <trkpt lat="48.66643" lon="5.01599">
        <ele>209.585</ele>
        <time>2018-09-16T07:20:26Z</time>
      </trkpt>
      <trkpt lat="48.66652" lon="5.01574">
        <ele>209.358</ele>
        <time>2018-09-16T07:20:31Z</time>
      </trkpt>
      <trkpt lat="48.66661" lon="5.0155">
        <ele>208.711</ele>
        <time>2018-09-16T07:20:36Z</time>
      </trkpt>
      <trkpt lat="48.66668" lon="5.01533">
        <ele>208.589</ele>
        <time>2018-09-16T07:20:43Z</time>
      </trkpt>
      <trkpt lat="48.66671" lon="5.01524">
        <ele>208.568</ele>
        <time>2018-09-16T07:20:48Z</time>
      </trkpt>
      <trkpt lat="48.66673" lon="5.01507">
        <ele>208.026</ele>
        <time>2018-09-16T07:20:53Z</time>
      </trkpt>
      <trkpt lat="48.66672" lon="5.01486">
        <ele>207.175</ele>
        <time>2018-09-16T07:20:58Z</time>
      </trkpt>
      <trkpt lat="48.66672" lon="5.01465">
        <ele>207.485</ele>
        <time>2018-09-16T07:21:03Z</time>
      </trkpt>
      <trkpt lat="48.66675" lon="5.01448">
        <ele>207.543</ele>
        <time>2018-09-16T07:21:08Z</time>
      </trkpt>
      <trkpt lat="48.66678" lon="5.01429">
        <ele>206.385</ele>
        <time>2018-09-16T07:21:13Z</time>
      </trkpt>
      <trkpt lat="48.66683" lon="5.014">
        <ele>206.734</ele>
        <time>2018-09-16T07:21:19Z</time>
      </trkpt>
      <trkpt lat="48.66687" lon="5.0138">
        <ele>206.404</ele>
        <time>2018-09-16T07:21:24Z</time>
      </trkpt>
      <trkpt lat="48.66689" lon="5.01356">
        <ele>205.992</ele>
        <time>2018-09-16T07:21:29Z</time>
      </trkpt>
      <trkpt lat="48.667" lon="5.01322">
        <ele>204.948</ele>
        <time>2018-09-16T07:21:34Z</time>
      </trkpt>
      <trkpt lat="48.66714" lon="5.01291">
        <ele>205.408</ele>
        <time>2018-09-16T07:21:39Z</time>
      </trkpt>
      <trkpt lat="48.66724" lon="5.01281">
        <ele>205.096</ele>
        <time>2018-09-16T07:21:44Z</time>
      </trkpt>
      <trkpt lat="48.66747" lon="5.01254">
        <ele>204.533</ele>
        <time>2018-09-16T07:21:49Z</time>
      </trkpt>
      <trkpt lat="48.66761" lon="5.01264">
        <ele>205.31</ele>
        <time>2018-09-16T07:21:54Z</time>
      </trkpt>
      <trkpt lat="48.66776" lon="5.01296">
        <ele>205.981</ele>
        <time>2018-09-16T07:21:59Z</time>
      </trkpt>
      <trkpt lat="48.6679" lon="5.01331">
        <ele>206.465</ele>
        <time>2018-09-16T07:22:04Z</time>
      </trkpt>
      <trkpt lat="48.66802" lon="5.01371">
        <ele>207.519</ele>
        <time>2018-09-16T07:22:09Z</time>
      </trkpt>
      <trkpt lat="48.66812" lon="5.01408">
        <ele>208.068</ele>
        <time>2018-09-16T07:22:14Z</time>
      </trkpt>
      <trkpt lat="48.6682" lon="5.0144">
        <ele>208.446</ele>
        <time>2018-09-16T07:22:19Z</time>
      </trkpt>
      <trkpt lat="48.66831" lon="5.01454">
        <ele>209.054</ele>
        <time>2018-09-16T07:22:24Z</time>
      </trkpt>
      <trkpt lat="48.66852" lon="5.01438">
        <ele>209.21</ele>
        <time>2018-09-16T07:22:29Z</time>
      </trkpt>
      <trkpt lat="48.66879" lon="5.01425">
        <ele>208.795</ele>
        <time>2018-09-16T07:22:34Z</time>
      </trkpt>
      <trkpt lat="48.66904" lon="5.01414">
        <ele>208.975</ele>
        <time>2018-09-16T07:22:39Z</time>
      </trkpt>
      <trkpt lat="48.66926" lon="5.01401">
        <ele>208.497</ele>
        <time>2018-09-16T07:22:44Z</time>
      </trkpt>
      <trkpt lat="48.66948" lon="5.01392">
        <ele>208.552</ele>
        <time>2018-09-16T07:22:49Z</time>
      </trkpt>
      <trkpt lat="48.66972" lon="5.01382">
        <ele>207.841</ele>
        <time>2018-09-16T07:22:54Z</time>
      </trkpt>
      <trkpt lat="48.66995" lon="5.01372">
        <ele>207.609</ele>
        <time>2018-09-16T07:22:59Z</time>
      </trkpt>
      <trkpt lat="48.6702" lon="5.01362">
        <ele>206.118</ele>
        <time>2018-09-16T07:23:04Z</time>
      </trkpt>
      <trkpt lat="48.67031" lon="5.01343">
        <ele>204.644</ele>
        <time>2018-09-16T07:23:08Z</time>
      </trkpt>
      <trkpt lat="48.67025" lon="5.01313">
        <ele>204.663</ele>
        <time>2018-09-16T07:23:13Z</time>
      </trkpt>
      <trkpt lat="48.67027" lon="5.01284">
        <ele>204.253</ele>
        <time>2018-09-16T07:23:18Z</time>
      </trkpt>
      <trkpt lat="48.6702" lon="5.01248">
        <ele>203.614</ele>
        <time>2018-09-16T07:23:23Z</time>
      </trkpt>
      <trkpt lat="48.67009" lon="5.01214">
        <ele>203.18</ele>
        <time>2018-09-16T07:23:28Z</time>
      </trkpt>
      <trkpt lat="48.66996" lon="5.01179">
        <ele>203.08</ele>
        <time>2018-09-16T07:23:33Z</time>
      </trkpt>
      <trkpt lat="48.66989" lon="5.01137">
        <ele>202.221</ele>
        <time>2018-09-16T07:23:38Z</time>
      </trkpt>
      <trkpt lat="48.66982" lon="5.01101">
        <ele>201.468</ele>
        <time>2018-09-16T07:23:43Z</time>
      </trkpt>
      <trkpt lat="48.66979" lon="5.01066">
        <ele>199.785</ele>
        <time>2018-09-16T07:23:48Z</time>
      </trkpt>
      <trkpt lat="48.66977" lon="5.0105">
        <ele>199.666</ele>
        <time>2018-09-16T07:23:53Z</time>
      </trkpt>
      <trkpt lat="48.66974" lon="5.01031">
        <ele>199.653</ele>
        <time>2018-09-16T07:23:58Z</time>
      </trkpt>
      <trkpt lat="48.66968" lon="5.01006">
        <ele>198.361</ele>
        <time>2018-09-16T07:24:03Z</time>
      </trkpt>
      <trkpt lat="48.66963" lon="5.00991">
        <ele>198.472</ele>
        <time>2018-09-16T07:24:08Z</time>
      </trkpt>
      <trkpt lat="48.66957" lon="5.0097">
        <ele>198.768</ele>
        <time>2018-09-16T07:24:13Z</time>
      </trkpt>
      <trkpt lat="48.66961" lon="5.00919">
        <ele>197.18</ele>
        <time>2018-09-16T07:24:19Z</time>
      </trkpt>
      <trkpt lat="48.66964" lon="5.009">
        <ele>195.708</ele>
        <time>2018-09-16T07:24:24Z</time>
      </trkpt>
      <trkpt lat="48.66969" lon="5.00861">
        <ele>195.137</ele>
        <time>2018-09-16T07:24:29Z</time>
      </trkpt>
      <trkpt lat="48.66967" lon="5.00813">
        <ele>191.956</ele>
        <time>2018-09-16T07:24:37Z</time>
      </trkpt>
      <trkpt lat="48.66982" lon="5.00788">
        <ele>187.815</ele>
        <time>2018-09-16T07:24:42Z</time>
      </trkpt>
      <trkpt lat="48.66987" lon="5.00769">
        <ele>186.304</ele>
        <time>2018-09-16T07:24:47Z</time>
      </trkpt>
      <trkpt lat="48.66985" lon="5.00754">
        <ele>184.386</ele>
        <time>2018-09-16T07:24:52Z</time>
      </trkpt>
      <trkpt lat="48.66994" lon="5.00728">
        <ele>181.337</ele>
        <time>2018-09-16T07:24:57Z</time>
      </trkpt>
      <trkpt lat="48.67014" lon="5.00716">
        <ele>177.888</ele>
        <time>2018-09-16T07:25:02Z</time>
      </trkpt>
      <trkpt lat="48.67031" lon="5.007">
        <ele>174.942</ele>
        <time>2018-09-16T07:25:07Z</time>
      </trkpt>
      <trkpt lat="48.67049" lon="5.00699">
        <ele>172.221</ele>
        <time>2018-09-16T07:25:12Z</time>
      </trkpt>
      <trkpt lat="48.67065" lon="5.00693">
        <ele>170.691</ele>
        <time>2018-09-16T07:25:17Z</time>
      </trkpt>
      <trkpt lat="48.67079" lon="5.00677">
        <ele>170.081</ele>
        <time>2018-09-16T07:25:22Z</time>
      </trkpt>
      <trkpt lat="48.67098" lon="5.00706">
        <ele>169.83</ele>
        <time>2018-09-16T07:25:27Z</time>
      </trkpt>
      <trkpt lat="48.67124" lon="5.00742">
        <ele>170.073</ele>
        <time>2018-09-16T07:25:32Z</time>
      </trkpt>
      <trkpt lat="48.67149" lon="5.00788">
        <ele>170.369</ele>
        <time>2018-09-16T07:25:37Z</time>
      </trkpt>
      <trkpt lat="48.67172" lon="5.0083">
        <ele>171.235</ele>
        <time>2018-09-16T07:25:42Z</time>
      </trkpt>
      <trkpt lat="48.67183" lon="5.00846">
        <ele>170.91</ele>
        <time>2018-09-16T07:25:47Z</time>
      </trkpt>
      <trkpt lat="48.67182" lon="5.00839">
        <ele>169.05</ele>
        <time>2018-09-16T07:26:15Z</time>
      </trkpt>
      <trkpt lat="48.67181" lon="5.00823">
        <ele>167.06</ele>
        <time>2018-09-16T07:26:20Z</time>
      </trkpt>
      <trkpt lat="48.67182" lon="5.00809">
        <ele>165.499</ele>
        <time>2018-09-16T07:26:25Z</time>
      </trkpt>
      <trkpt lat="48.67172" lon="5.00794">
        <ele>162.703</ele>
        <time>2018-09-16T07:26:30Z</time>
      </trkpt>
      <trkpt lat="48.67169" lon="5.00796">
        <ele>162.133</ele>
        <time>2018-09-16T07:26:35Z</time>
      </trkpt>
      <trkpt lat="48.67156" lon="5.00827">
        <ele>162.101</ele>
        <time>2018-09-16T07:27:08Z</time>
      </trkpt>
      <trkpt lat="48.67156" lon="5.00837">
        <ele>163.581</ele>
        <time>2018-09-16T07:27:19Z</time>
      </trkpt>
      <trkpt lat="48.67153" lon="5.00948">
        <ele>162.011</ele>
        <time>2018-09-16T07:27:51Z</time>
      </trkpt>
      <trkpt lat="48.6716" lon="5.00964">
        <ele>162.127</ele>
        <time>2018-09-16T07:27:56Z</time>
      </trkpt>
      <trkpt lat="48.67173" lon="5.00971">
        <ele>162.146</ele>
        <time>2018-09-16T07:28:01Z</time>
      </trkpt>
      <trkpt lat="48.6718" lon="5.00994">
        <ele>162.159</ele>
        <time>2018-09-16T07:28:06Z</time>
      </trkpt>
      <trkpt lat="48.67181" lon="5.0101">
        <ele>162.233</ele>
        <time>2018-09-16T07:28:11Z</time>
      </trkpt>
      <trkpt lat="48.67214" lon="5.01084">
        <ele>162.904</ele>
        <time>2018-09-16T07:28:44Z</time>
      </trkpt>
      <trkpt lat="48.67228" lon="5.01118">
        <ele>162.883</ele>
        <time>2018-09-16T07:28:49Z</time>
      </trkpt>
      <trkpt lat="48.67247" lon="5.01141">
        <ele>163.102</ele>
        <time>2018-09-16T07:28:54Z</time>
      </trkpt>
      <trkpt lat="48.67248" lon="5.01164">
        <ele>162.516</ele>
        <time>2018-09-16T07:28:59Z</time>
      </trkpt>
      <trkpt lat="48.67254" lon="5.01195">
        <ele>162.822</ele>
        <time>2018-09-16T07:29:04Z</time>
      </trkpt>
      <trkpt lat="48.67257" lon="5.01206">
        <ele>162.838</ele>
        <time>2018-09-16T07:29:09Z</time>
      </trkpt>
      <trkpt lat="48.67265" lon="5.0122">
        <ele>163.142</ele>
        <time>2018-09-16T07:29:15Z</time>
      </trkpt>
      <trkpt lat="48.67281" lon="5.01249">
        <ele>163.427</ele>
        <time>2018-09-16T07:29:20Z</time>
      </trkpt>
      <trkpt lat="48.67286" lon="5.0126">
        <ele>163.847</ele>
        <time>2018-09-16T07:29:25Z</time>
      </trkpt>
      <trkpt lat="48.67287" lon="5.01297">
        <ele>163.456</ele>
        <time>2018-09-16T07:29:30Z</time>
      </trkpt>
      <trkpt lat="48.6729" lon="5.01322">
        <ele>164.608</ele>
        <time>2018-09-16T07:29:35Z</time>
      </trkpt>
      <trkpt lat="48.67281" lon="5.01359">
        <ele>164.186</ele>
        <time>2018-09-16T07:29:40Z</time>
      </trkpt>
      <trkpt lat="48.67281" lon="5.01381">
        <ele>164.088</ele>
        <time>2018-09-16T07:29:45Z</time>
      </trkpt>
      <trkpt lat="48.67284" lon="5.01401">
        <ele>164.056</ele>
        <time>2018-09-16T07:29:50Z</time>
      </trkpt>
      <trkpt lat="48.67285" lon="5.01424">
        <ele>164.378</ele>
        <time>2018-09-16T07:29:55Z</time>
      </trkpt>
      <trkpt lat="48.67294" lon="5.01471">
        <ele>165.287</ele>
        <time>2018-09-16T07:30:32Z</time>
      </trkpt>
      <trkpt lat="48.67299" lon="5.01489">
        <ele>164.759</ele>
        <time>2018-09-16T07:30:37Z</time>
      </trkpt>
      <trkpt lat="48.67309" lon="5.01495">
        <ele>166.13</ele>
        <time>2018-09-16T07:30:42Z</time>
      </trkpt>
      <trkpt lat="48.67314" lon="5.01511">
        <ele>166.408</ele>
        <time>2018-09-16T07:30:47Z</time>
      </trkpt>
      <trkpt lat="48.67317" lon="5.01524">
        <ele>166.566</ele>
        <time>2018-09-16T07:30:52Z</time>
      </trkpt>
      <trkpt lat="48.6732" lon="5.01532">
        <ele>166.619</ele>
        <time>2018-09-16T07:30:57Z</time>
      </trkpt>
      <trkpt lat="48.67361" lon="5.0151">
        <ele>177.888</ele>
        <time>2018-09-16T07:33:29Z</time>
      </trkpt>
      <trkpt lat="48.6736" lon="5.01516">
        <ele>176.662</ele>
        <time>2018-09-16T07:33:36Z</time>
      </trkpt>
      <trkpt lat="48.67422" lon="5.01417">
        <ele>192.344</ele>
        <time>2018-09-16T07:35:44Z</time>
      </trkpt>
      <trkpt lat="48.67442" lon="5.01405">
        <ele>193.57</ele>
        <time>2018-09-16T07:35:49Z</time>
      </trkpt>
      <trkpt lat="48.67461" lon="5.01385">
        <ele>195.061</ele>
        <time>2018-09-16T07:35:54Z</time>
      </trkpt>
      <trkpt lat="48.67477" lon="5.01362">
        <ele>196.057</ele>
        <time>2018-09-16T07:35:59Z</time>
      </trkpt>
      <trkpt lat="48.6749" lon="5.01344">
        <ele>196.976</ele>
        <time>2018-09-16T07:36:04Z</time>
      </trkpt>
      <trkpt lat="48.67504" lon="5.0133">
        <ele>198.361</ele>
        <time>2018-09-16T07:36:09Z</time>
      </trkpt>
      <trkpt lat="48.67517" lon="5.0131">
        <ele>199.563</ele>
        <time>2018-09-16T07:36:14Z</time>
      </trkpt>
      <trkpt lat="48.67525" lon="5.01286">
        <ele>201.019</ele>
        <time>2018-09-16T07:36:19Z</time>
      </trkpt>
      <trkpt lat="48.67538" lon="5.0126">
        <ele>201.619</ele>
        <time>2018-09-16T07:36:24Z</time>
      </trkpt>
      <trkpt lat="48.67549" lon="5.01241">
        <ele>202.396</ele>
        <time>2018-09-16T07:36:29Z</time>
      </trkpt>
      <trkpt lat="48.6756" lon="5.01219">
        <ele>202.631</ele>
        <time>2018-09-16T07:36:34Z</time>
      </trkpt>
      <trkpt lat="48.67574" lon="5.01198">
        <ele>203.294</ele>
        <time>2018-09-16T07:36:39Z</time>
      </trkpt>
      <trkpt lat="48.6759" lon="5.01178">
        <ele>203.616</ele>
        <time>2018-09-16T07:36:44Z</time>
      </trkpt>
      <trkpt lat="48.67612" lon="5.01157">
        <ele>203.999</ele>
        <time>2018-09-16T07:36:49Z</time>
      </trkpt>
      <trkpt lat="48.67633" lon="5.01139">
        <ele>203.88</ele>
        <time>2018-09-16T07:36:54Z</time>
      </trkpt>
      <trkpt lat="48.67654" lon="5.01121">
        <ele>203.902</ele>
        <time>2018-09-16T07:36:59Z</time>
      </trkpt>
      <trkpt lat="48.67675" lon="5.01105">
        <ele>203.561</ele>
        <time>2018-09-16T07:37:04Z</time>
      </trkpt>
      <trkpt lat="48.67692" lon="5.01089">
        <ele>203.725</ele>
        <time>2018-09-16T07:37:09Z</time>
      </trkpt>
      <trkpt lat="48.67711" lon="5.01072">
        <ele>204.15</ele>
        <time>2018-09-16T07:37:14Z</time>
      </trkpt>
      <trkpt lat="48.6773" lon="5.01057">
        <ele>204.715</ele>
        <time>2018-09-16T07:37:19Z</time>
      </trkpt>
      <trkpt lat="48.67749" lon="5.01043">
        <ele>204.755</ele>
        <time>2018-09-16T07:37:24Z</time>
      </trkpt>
      <trkpt lat="48.67767" lon="5.01029">
        <ele>204.504</ele>
        <time>2018-09-16T07:37:29Z</time>
      </trkpt>
      <trkpt lat="48.67781" lon="5.01016">
        <ele>204.464</ele>
        <time>2018-09-16T07:37:34Z</time>
      </trkpt>
      <trkpt lat="48.67794" lon="5.01011">
        <ele>204.488</ele>
        <time>2018-09-16T07:37:39Z</time>
      </trkpt>
      <trkpt lat="48.67793" lon="5.01013">
        <ele>202.874</ele>
        <time>2018-09-16T07:37:44Z</time>
      </trkpt>
      <trkpt lat="48.67785" lon="5.01022">
        <ele>202.972</ele>
        <time>2018-09-16T07:37:49Z</time>
      </trkpt>
      <trkpt lat="48.67774" lon="5.01027">
        <ele>202.826</ele>
        <time>2018-09-16T07:37:54Z</time>
      </trkpt>
      <trkpt lat="48.67765" lon="5.0104">
        <ele>202.448</ele>
        <time>2018-09-16T07:37:59Z</time>
      </trkpt>
      <trkpt lat="48.67761" lon="5.01045">
        <ele>202.726</ele>
        <time>2018-09-16T07:38:04Z</time>
      </trkpt>
      <trkpt lat="48.67754" lon="5.01056">
        <ele>202.916</ele>
        <time>2018-09-16T07:38:08Z</time>
      </trkpt>
      <trkpt lat="48.67744" lon="5.01072">
        <ele>202.52</ele>
        <time>2018-09-16T07:38:13Z</time>
      </trkpt>
      <trkpt lat="48.67735" lon="5.01083">
        <ele>201.957</ele>
        <time>2018-09-16T07:38:18Z</time>
      </trkpt>
      <trkpt lat="48.67736" lon="5.01088">
        <ele>200.379</ele>
        <time>2018-09-16T07:38:23Z</time>
      </trkpt>
      <trkpt lat="48.67724" lon="5.01214">
        <ele>181.252</ele>
        <time>2018-09-16T07:40:25Z</time>
      </trkpt>
      <trkpt lat="48.67706" lon="5.01241">
        <ele>181.276</ele>
        <time>2018-09-16T07:40:31Z</time>
      </trkpt>
      <trkpt lat="48.67687" lon="5.0127">
        <ele>181.194</ele>
        <time>2018-09-16T07:40:36Z</time>
      </trkpt>
      <trkpt lat="48.67664" lon="5.01301">
        <ele>181.067</ele>
        <time>2018-09-16T07:40:41Z</time>
      </trkpt>
      <trkpt lat="48.67646" lon="5.01341">
        <ele>180.718</ele>
        <time>2018-09-16T07:40:46Z</time>
      </trkpt>
      <trkpt lat="48.67624" lon="5.01367">
        <ele>178.694</ele>
        <time>2018-09-16T07:40:51Z</time>
      </trkpt>
      <trkpt lat="48.67608" lon="5.014">
        <ele>177.051</ele>
        <time>2018-09-16T07:40:59Z</time>
      </trkpt>
      <trkpt lat="48.67593" lon="5.01444">
        <ele>175.801</ele>
        <time>2018-09-16T07:41:04Z</time>
      </trkpt>
      <trkpt lat="48.67555" lon="5.01482">
        <ele>174.837</ele>
        <time>2018-09-16T07:41:09Z</time>
      </trkpt>
      <trkpt lat="48.67528" lon="5.01516">
        <ele>172.958</ele>
        <time>2018-09-16T07:41:14Z</time>
      </trkpt>
      <trkpt lat="48.6751" lon="5.01542">
        <ele>172.879</ele>
        <time>2018-09-16T07:41:19Z</time>
      </trkpt>
      <trkpt lat="48.67485" lon="5.01573">
        <ele>171.61</ele>
        <time>2018-09-16T07:41:24Z</time>
      </trkpt>
      <trkpt lat="48.67458" lon="5.01585">
        <ele>170.72</ele>
        <time>2018-09-16T07:41:29Z</time>
      </trkpt>
      <trkpt lat="48.67431" lon="5.01578">
        <ele>170.522</ele>
        <time>2018-09-16T07:41:34Z</time>
      </trkpt>
      <trkpt lat="48.67419" lon="5.01571">
        <ele>169.771</ele>
        <time>2018-09-16T07:41:39Z</time>
      </trkpt>
      <trkpt lat="48.67354" lon="5.01586">
        <ele>167.549</ele>
        <time>2018-09-16T07:41:51Z</time>
      </trkpt>
      <trkpt lat="48.67323" lon="5.01563">
        <ele>166.934</ele>
        <time>2018-09-16T07:41:56Z</time>
      </trkpt>
      <trkpt lat="48.673" lon="5.01539">
        <ele>163.808</ele>
        <time>2018-09-16T07:42:01Z</time>
      </trkpt>
      <trkpt lat="48.67268" lon="5.01544">
        <ele>164.17</ele>
        <time>2018-09-16T07:42:06Z</time>
      </trkpt>
      <trkpt lat="48.67252" lon="5.01552">
        <ele>163.451</ele>
        <time>2018-09-16T07:42:11Z</time>
      </trkpt>
      <trkpt lat="48.67246" lon="5.01556">
        <ele>164.339</ele>
        <time>2018-09-16T07:42:16Z</time>
      </trkpt>
      <trkpt lat="48.6725" lon="5.01546">
        <ele>166.109</ele>
        <time>2018-09-16T07:42:24Z</time>
      </trkpt>
      <trkpt lat="48.6725" lon="5.01566">
        <ele>164.69</ele>
        <time>2018-09-16T07:42:42Z</time>
      </trkpt>
      <trkpt lat="48.67245" lon="5.01591">
        <ele>165.161</ele>
        <time>2018-09-16T07:42:47Z</time>
      </trkpt>
      <trkpt lat="48.67238" lon="5.01619">
        <ele>166.228</ele>
        <time>2018-09-16T07:42:52Z</time>
      </trkpt>
      <trkpt lat="48.6722" lon="5.01662">
        <ele>165.887</ele>
        <time>2018-09-16T07:42:57Z</time>
      </trkpt>
      <trkpt lat="48.6721" lon="5.01673">
        <ele>165.438</ele>
        <time>2018-09-16T07:43:02Z</time>
      </trkpt>
      <trkpt lat="48.67202" lon="5.017">
        <ele>164.804</ele>
        <time>2018-09-16T07:43:07Z</time>
      </trkpt>
      <trkpt lat="48.67199" lon="5.01718">
        <ele>164.846</ele>
        <time>2018-09-16T07:43:12Z</time>
      </trkpt>
      <trkpt lat="48.67194" lon="5.01726">
        <ele>164.899</ele>
        <time>2018-09-16T07:43:17Z</time>
      </trkpt>
      <trkpt lat="48.67176" lon="5.01742">
        <ele>165.935</ele>
        <time>2018-09-16T07:43:22Z</time>
      </trkpt>
      <trkpt lat="48.67167" lon="5.01726">
        <ele>168.072</ele>
        <time>2018-09-16T07:43:27Z</time>
      </trkpt>
      <trkpt lat="48.6716" lon="5.01722">
        <ele>169.581</ele>
        <time>2018-09-16T07:43:32Z</time>
      </trkpt>
      <trkpt lat="48.67155" lon="5.01731">
        <ele>170.168</ele>
        <time>2018-09-16T07:43:37Z</time>
      </trkpt>
      <trkpt lat="48.67152" lon="5.0174">
        <ele>169.967</ele>
        <time>2018-09-16T07:43:42Z</time>
      </trkpt>
      <trkpt lat="48.67144" lon="5.01743">
        <ele>170.984</ele>
        <time>2018-09-16T07:43:47Z</time>
      </trkpt>
      <trkpt lat="48.6714" lon="5.0176">
        <ele>171.674</ele>
        <time>2018-09-16T07:43:52Z</time>
      </trkpt>
      <trkpt lat="48.67128" lon="5.01765">
        <ele>172.342</ele>
        <time>2018-09-16T07:43:57Z</time>
      </trkpt>
      <trkpt lat="48.67123" lon="5.01777">
        <ele>172.467</ele>
        <time>2018-09-16T07:44:02Z</time>
      </trkpt>
      <trkpt lat="48.67109" lon="5.01785">
        <ele>172.506</ele>
        <time>2018-09-16T07:44:07Z</time>
      </trkpt>
      <trkpt lat="48.67074" lon="5.01827">
        <ele>173.341</ele>
        <time>2018-09-16T07:44:26Z</time>
      </trkpt>
      <trkpt lat="48.6702" lon="5.01885">
        <ele>177.127</ele>
        <time>2018-09-16T07:44:54Z</time>
      </trkpt>
      <trkpt lat="48.67006" lon="5.01903">
        <ele>176.903</ele>
        <time>2018-09-16T07:44:59Z</time>
      </trkpt>
      <trkpt lat="48.66993" lon="5.01918">
        <ele>177.318</ele>
        <time>2018-09-16T07:45:04Z</time>
      </trkpt>
      <trkpt lat="48.66986" lon="5.01931">
        <ele>176.61</ele>
        <time>2018-09-16T07:45:09Z</time>
      </trkpt>
      <trkpt lat="48.66983" lon="5.01946">
        <ele>174.38</ele>
        <time>2018-09-16T07:45:16Z</time>
      </trkpt>
      <trkpt lat="48.66979" lon="5.01965">
        <ele>174.015</ele>
        <time>2018-09-16T07:45:21Z</time>
      </trkpt>
      <trkpt lat="48.66964" lon="5.01988">
        <ele>174.845</ele>
        <time>2018-09-16T07:45:26Z</time>
      </trkpt>
      <trkpt lat="48.66951" lon="5.02">
        <ele>175.489</ele>
        <time>2018-09-16T07:45:31Z</time>
      </trkpt>
      <trkpt lat="48.66946" lon="5.02002">
        <ele>176.152</ele>
        <time>2018-09-16T07:45:36Z</time>
      </trkpt>
      <trkpt lat="48.66942" lon="5.02004">
        <ele>176.3</ele>
        <time>2018-09-16T07:45:46Z</time>
      </trkpt>
      <trkpt lat="48.66878" lon="5.01881">
        <ele>203.661</ele>
        <time>2018-09-16T07:51:39Z</time>
      </trkpt>
      <trkpt lat="48.66873" lon="5.01875">
        <ele>204.575</ele>
        <time>2018-09-16T07:51:44Z</time>
      </trkpt>
      <trkpt lat="48.66865" lon="5.01873">
        <ele>205.82</ele>
        <time>2018-09-16T07:51:49Z</time>
      </trkpt>
      <trkpt lat="48.6686" lon="5.0187">
        <ele>206.105</ele>
        <time>2018-09-16T07:51:54Z</time>
      </trkpt>
      <trkpt lat="48.66818" lon="5.01863">
        <ele>207.167</ele>
        <time>2018-09-16T07:52:46Z</time>
      </trkpt>
      <trkpt lat="48.66817" lon="5.01865">
        <ele>207.26</ele>
        <time>2018-09-16T07:52:51Z</time>
      </trkpt>
      <trkpt lat="48.66792" lon="5.01904">
        <ele>207.244</ele>
        <time>2018-09-16T07:53:25Z</time>
      </trkpt>
      <trkpt lat="48.66784" lon="5.0192">
        <ele>206.988</ele>
        <time>2018-09-16T07:53:30Z</time>
      </trkpt>
      <trkpt lat="48.66782" lon="5.01938">
        <ele>207.057</ele>
        <time>2018-09-16T07:53:35Z</time>
      </trkpt>
      <trkpt lat="48.66777" lon="5.01956">
        <ele>206.478</ele>
        <time>2018-09-16T07:53:40Z</time>
      </trkpt>
      <trkpt lat="48.66769" lon="5.01968">
        <ele>206.623</ele>
        <time>2018-09-16T07:53:45Z</time>
      </trkpt>
      <trkpt lat="48.66764" lon="5.01978">
        <ele>206.792</ele>
        <time>2018-09-16T07:53:50Z</time>
      </trkpt>
      <trkpt lat="48.66759" lon="5.01991">
        <ele>206.317</ele>
        <time>2018-09-16T07:53:55Z</time>
      </trkpt>
      <trkpt lat="48.66746" lon="5.02044">
        <ele>201.854</ele>
        <time>2018-09-16T07:54:26Z</time>
      </trkpt>
      <trkpt lat="48.66742" lon="5.0206">
        <ele>201.92</ele>
        <time>2018-09-16T07:54:31Z</time>
      </trkpt>
      <trkpt lat="48.66739" lon="5.02077">
        <ele>202.364</ele>
        <time>2018-09-16T07:54:36Z</time>
      </trkpt>
      <trkpt lat="48.66736" lon="5.02089">
        <ele>202.155</ele>
        <time>2018-09-16T07:54:41Z</time>
      </trkpt>
      <trkpt lat="48.66731" lon="5.021">
        <ele>201.923</ele>
        <time>2018-09-16T07:54:46Z</time>
      </trkpt>
      <trkpt lat="48.66723" lon="5.02114">
        <ele>201.101</ele>
        <time>2018-09-16T07:54:51Z</time>
      </trkpt>
      <trkpt lat="48.66716" lon="5.02118">
        <ele>201.391</ele>
        <time>2018-09-16T07:54:56Z</time>
      </trkpt>
      <trkpt lat="48.66628" lon="5.02249">
        <ele>203.13</ele>
        <time>2018-09-16T07:56:42Z</time>
      </trkpt>
      <trkpt lat="48.66616" lon="5.02266">
        <ele>204.081</ele>
        <time>2018-09-16T07:56:47Z</time>
      </trkpt>
      <trkpt lat="48.66613" lon="5.02273">
        <ele>204.816</ele>
        <time>2018-09-16T07:56:52Z</time>
      </trkpt>
      <trkpt lat="48.66611" lon="5.0228">
        <ele>203.91</ele>
        <time>2018-09-16T07:56:57Z</time>
      </trkpt>
      <trkpt lat="48.66635" lon="5.02362">
        <ele>192.638</ele>
        <time>2018-09-16T07:58:29Z</time>
      </trkpt>
      <trkpt lat="48.66649" lon="5.02378">
        <ele>190.077</ele>
        <time>2018-09-16T07:58:34Z</time>
      </trkpt>
      <trkpt lat="48.66651" lon="5.02399">
        <ele>189.956</ele>
        <time>2018-09-16T07:58:39Z</time>
      </trkpt>
      <trkpt lat="48.66647" lon="5.0243">
        <ele>189.699</ele>
        <time>2018-09-16T07:58:44Z</time>
      </trkpt>
      <trkpt lat="48.6664" lon="5.02467">
        <ele>189.776</ele>
        <time>2018-09-16T07:58:49Z</time>
      </trkpt>
      <trkpt lat="48.66633" lon="5.02503">
        <ele>188.997</ele>
        <time>2018-09-16T07:58:54Z</time>
      </trkpt>
      <trkpt lat="48.66624" lon="5.02542">
        <ele>188.957</ele>
        <time>2018-09-16T07:58:59Z</time>
      </trkpt>
      <trkpt lat="48.6662" lon="5.02582">
        <ele>188.79</ele>
        <time>2018-09-16T07:59:04Z</time>
      </trkpt>
      <trkpt lat="48.66612" lon="5.02625">
        <ele>187.501</ele>
        <time>2018-09-16T07:59:09Z</time>
      </trkpt>
      <trkpt lat="48.66602" lon="5.02663">
        <ele>186.323</ele>
        <time>2018-09-16T07:59:14Z</time>
      </trkpt>
      <trkpt lat="48.66594" lon="5.0271">
        <ele>186.344</ele>
        <time>2018-09-16T07:59:19Z</time>
      </trkpt>
      <trkpt lat="48.66586" lon="5.02757">
        <ele>185.501</ele>
        <time>2018-09-16T07:59:24Z</time>
      </trkpt>
      <trkpt lat="48.66577" lon="5.02791">
        <ele>183.945</ele>
        <time>2018-09-16T07:59:29Z</time>
      </trkpt>
      <trkpt lat="48.66563" lon="5.02836">
        <ele>183.157</ele>
        <time>2018-09-16T07:59:34Z</time>
      </trkpt>
      <trkpt lat="48.66557" lon="5.02889">
        <ele>181.873</ele>
        <time>2018-09-16T07:59:39Z</time>
      </trkpt>
      <trkpt lat="48.66551" lon="5.0294">
        <ele>180.547</ele>
        <time>2018-09-16T07:59:44Z</time>
      </trkpt>
      <trkpt lat="48.66539" lon="5.02984">
        <ele>179.305</ele>
        <time>2018-09-16T07:59:49Z</time>
      </trkpt>
      <trkpt lat="48.66524" lon="5.03023">
        <ele>178.546</ele>
        <time>2018-09-16T07:59:54Z</time>
      </trkpt>
      <trkpt lat="48.66514" lon="5.03062">
        <ele>179.466</ele>
        <time>2018-09-16T07:59:59Z</time>
      </trkpt>
      <trkpt lat="48.66521" lon="5.03095">
        <ele>179.157</ele>
        <time>2018-09-16T08:00:04Z</time>
      </trkpt>
      <trkpt lat="48.66538" lon="5.03125">
        <ele>178.351</ele>
        <time>2018-09-16T08:00:09Z</time>
      </trkpt>
      <trkpt lat="48.66561" lon="5.03153">
        <ele>179.048</ele>
        <time>2018-09-16T08:00:14Z</time>
      </trkpt>
      <trkpt lat="48.66586" lon="5.03179">
        <ele>179.479</ele>
        <time>2018-09-16T08:00:19Z</time>
      </trkpt>
      <trkpt lat="48.66609" lon="5.03211">
        <ele>179.764</ele>
        <time>2018-09-16T08:00:24Z</time>
      </trkpt>
      <trkpt lat="48.66623" lon="5.03256">
        <ele>180.478</ele>
        <time>2018-09-16T08:00:29Z</time>
      </trkpt>
      <trkpt lat="48.66633" lon="5.03295">
        <ele>180.924</ele>
        <time>2018-09-16T08:00:34Z</time>
      </trkpt>
      <trkpt lat="48.66644" lon="5.03333">
        <ele>180.602</ele>
        <time>2018-09-16T08:00:39Z</time>
      </trkpt>
      <trkpt lat="48.66657" lon="5.03374">
        <ele>179.159</ele>
        <time>2018-09-16T08:00:44Z</time>
      </trkpt>
      <trkpt lat="48.66676" lon="5.03424">
        <ele>177.471</ele>
        <time>2018-09-16T08:00:49Z</time>
      </trkpt>
      <trkpt lat="48.66702" lon="5.03476">
        <ele>174.673</ele>
        <time>2018-09-16T08:00:54Z</time>
      </trkpt>
      <trkpt lat="48.66723" lon="5.03533">
        <ele>173.65</ele>
        <time>2018-09-16T08:00:59Z</time>
      </trkpt>
      <trkpt lat="48.66742" lon="5.03585">
        <ele>172.768</ele>
        <time>2018-09-16T08:01:04Z</time>
      </trkpt>
      <trkpt lat="48.66762" lon="5.0363">
        <ele>171.798</ele>
        <time>2018-09-16T08:01:09Z</time>
      </trkpt>
      <trkpt lat="48.66783" lon="5.03665">
        <ele>171.653</ele>
        <time>2018-09-16T08:01:14Z</time>
      </trkpt>
      <trkpt lat="48.66798" lon="5.03695">
        <ele>170.971</ele>
        <time>2018-09-16T08:01:19Z</time>
      </trkpt>
      <trkpt lat="48.66809" lon="5.03702">
        <ele>170.715</ele>
        <time>2018-09-16T08:01:24Z</time>
      </trkpt>
      <trkpt lat="48.66817" lon="5.03696">
        <ele>171.103</ele>
        <time>2018-09-16T08:01:29Z</time>
      </trkpt>
      <trkpt lat="48.6682" lon="5.03734">
        <ele>171.235</ele>
        <time>2018-09-16T08:10:19Z</time>
      </trkpt>
      <trkpt lat="48.66813" lon="5.03746">
        <ele>171.835</ele>
        <time>2018-09-16T08:10:24Z</time>
      </trkpt>
      <trkpt lat="48.66801" lon="5.03758">
        <ele>172.533</ele>
        <time>2018-09-16T08:10:29Z</time>
      </trkpt>
      <trkpt lat="48.66789" lon="5.0377">
        <ele>173.225</ele>
        <time>2018-09-16T08:10:34Z</time>
      </trkpt>
      <trkpt lat="48.66782" lon="5.03784">
        <ele>174.107</ele>
        <time>2018-09-16T08:10:39Z</time>
      </trkpt>
      <trkpt lat="48.66776" lon="5.03804">
        <ele>174.829</ele>
        <time>2018-09-16T08:10:44Z</time>
      </trkpt>
      <trkpt lat="48.66769" lon="5.03824">
        <ele>175.674</ele>
        <time>2018-09-16T08:10:49Z</time>
      </trkpt>
      <trkpt lat="48.66763" lon="5.0384">
        <ele>176.573</ele>
        <time>2018-09-16T08:10:54Z</time>
      </trkpt>
      <trkpt lat="48.66756" lon="5.03857">
        <ele>177.151</ele>
        <time>2018-09-16T08:10:59Z</time>
      </trkpt>
      <trkpt lat="48.66747" lon="5.03862">
        <ele>178.192</ele>
        <time>2018-09-16T08:11:04Z</time>
      </trkpt>
      <trkpt lat="48.66741" lon="5.03875">
        <ele>179.537</ele>
        <time>2018-09-16T08:11:09Z</time>
      </trkpt>
      <trkpt lat="48.66729" lon="5.03883">
        <ele>180.708</ele>
        <time>2018-09-16T08:11:14Z</time>
      </trkpt>
      <trkpt lat="48.66708" lon="5.03874">
        <ele>180.869</ele>
        <time>2018-09-16T08:11:19Z</time>
      </trkpt>
      <trkpt lat="48.66687" lon="5.03877">
        <ele>180.515</ele>
        <time>2018-09-16T08:11:24Z</time>
      </trkpt>
      <trkpt lat="48.66672" lon="5.03879">
        <ele>179.978</ele>
        <time>2018-09-16T08:11:29Z</time>
      </trkpt>
      <trkpt lat="48.66655" lon="5.03894">
        <ele>180.528</ele>
        <time>2018-09-16T08:11:34Z</time>
      </trkpt>
      <trkpt lat="48.66642" lon="5.03915">
        <ele>180.922</ele>
        <time>2018-09-16T08:11:39Z</time>
      </trkpt>
      <trkpt lat="48.66628" lon="5.03938">
        <ele>182.333</ele>
        <time>2018-09-16T08:11:44Z</time>
      </trkpt>
      <trkpt lat="48.66608" lon="5.03948">
        <ele>182.983</ele>
        <time>2018-09-16T08:11:49Z</time>
      </trkpt>
      <trkpt lat="48.66596" lon="5.03965">
        <ele>184.23</ele>
        <time>2018-09-16T08:11:54Z</time>
      </trkpt>
      <trkpt lat="48.66589" lon="5.03987">
        <ele>185.189</ele>
        <time>2018-09-16T08:11:59Z</time>
      </trkpt>
      <trkpt lat="48.66586" lon="5.04009">
        <ele>185.889</ele>
        <time>2018-09-16T08:12:04Z</time>
      </trkpt>
      <trkpt lat="48.66583" lon="5.04025">
        <ele>187.121</ele>
        <time>2018-09-16T08:12:09Z</time>
      </trkpt>
      <trkpt lat="48.66579" lon="5.04038">
        <ele>186.92</ele>
        <time>2018-09-16T08:12:14Z</time>
      </trkpt>
      <trkpt lat="48.66579" lon="5.0405">
        <ele>187.065</ele>
        <time>2018-09-16T08:12:24Z</time>
      </trkpt>
      <trkpt lat="48.66554" lon="5.04141">
        <ele>189.808</ele>
        <time>2018-09-16T08:15:04Z</time>
      </trkpt>
      <trkpt lat="48.66552" lon="5.0415">
        <ele>190.371</ele>
        <time>2018-09-16T08:15:09Z</time>
      </trkpt>
      <trkpt lat="48.66553" lon="5.04165">
        <ele>190.513</ele>
        <time>2018-09-16T08:15:14Z</time>
      </trkpt>
      <trkpt lat="48.66542" lon="5.04193">
        <ele>190.363</ele>
        <time>2018-09-16T08:15:19Z</time>
      </trkpt>
      <trkpt lat="48.66536" lon="5.04209">
        <ele>190.334</ele>
        <time>2018-09-16T08:15:24Z</time>
      </trkpt>
      <trkpt lat="48.66541" lon="5.04225">
        <ele>191.137</ele>
        <time>2018-09-16T08:15:29Z</time>
      </trkpt>
      <trkpt lat="48.66549" lon="5.04251">
        <ele>191.216</ele>
        <time>2018-09-16T08:15:34Z</time>
      </trkpt>
      <trkpt lat="48.6656" lon="5.04286">
        <ele>191.372</ele>
        <time>2018-09-16T08:15:39Z</time>
      </trkpt>
      <trkpt lat="48.6656" lon="5.04324">
        <ele>191.552</ele>
        <time>2018-09-16T08:15:44Z</time>
      </trkpt>
      <trkpt lat="48.66558" lon="5.04351">
        <ele>191.155</ele>
        <time>2018-09-16T08:15:49Z</time>
      </trkpt>
      <trkpt lat="48.66543" lon="5.04376">
        <ele>191.713</ele>
        <time>2018-09-16T08:15:54Z</time>
      </trkpt>
      <trkpt lat="48.66528" lon="5.04396">
        <ele>192.067</ele>
        <time>2018-09-16T08:15:59Z</time>
      </trkpt>
      <trkpt lat="48.66511" lon="5.04425">
        <ele>192.35</ele>
        <time>2018-09-16T08:16:04Z</time>
      </trkpt>
      <trkpt lat="48.66494" lon="5.04459">
        <ele>192.614</ele>
        <time>2018-09-16T08:16:09Z</time>
      </trkpt>
      <trkpt lat="48.6648" lon="5.04488">
        <ele>192.278</ele>
        <time>2018-09-16T08:16:14Z</time>
      </trkpt>
      <trkpt lat="48.66469" lon="5.04515">
        <ele>192.241</ele>
        <time>2018-09-16T08:16:19Z</time>
      </trkpt>
      <trkpt lat="48.66459" lon="5.04542">
        <ele>191.866</ele>
        <time>2018-09-16T08:16:24Z</time>
      </trkpt>
      <trkpt lat="48.66459" lon="5.04563">
        <ele>192.165</ele>
        <time>2018-09-16T08:16:34Z</time>
      </trkpt>
      <trkpt lat="48.66455" lon="5.04596">
        <ele>192.085</ele>
        <time>2018-09-16T08:16:39Z</time>
      </trkpt>
      <trkpt lat="48.66454" lon="5.04628">
        <ele>191.266</ele>
        <time>2018-09-16T08:16:44Z</time>
      </trkpt>
      <trkpt lat="48.66462" lon="5.04663">
        <ele>190.104</ele>
        <time>2018-09-16T08:16:49Z</time>
      </trkpt>
      <trkpt lat="48.66468" lon="5.04696">
        <ele>189.303</ele>
        <time>2018-09-16T08:16:54Z</time>
      </trkpt>
      <trkpt lat="48.66465" lon="5.0472">
        <ele>188.302</ele>
        <time>2018-09-16T08:16:59Z</time>
      </trkpt>
      <trkpt lat="48.66457" lon="5.04751">
        <ele>187.406</ele>
        <time>2018-09-16T08:17:04Z</time>
      </trkpt>
      <trkpt lat="48.66431" lon="5.04752">
        <ele>188.048</ele>
        <time>2018-09-16T08:17:10Z</time>
      </trkpt>
      <trkpt lat="48.66417" lon="5.04765">
        <ele>188.109</ele>
        <time>2018-09-16T08:17:15Z</time>
      </trkpt>
      <trkpt lat="48.66408" lon="5.04771">
        <ele>187.483</ele>
        <time>2018-09-16T08:17:20Z</time>
      </trkpt>
      <trkpt lat="48.66374" lon="5.04782">
        <ele>186.238</ele>
        <time>2018-09-16T08:17:33Z</time>
      </trkpt>
      <trkpt lat="48.66364" lon="5.04799">
        <ele>183.073</ele>
        <time>2018-09-16T08:17:38Z</time>
      </trkpt>
      <trkpt lat="48.66362" lon="5.04824">
        <ele>180.177</ele>
        <time>2018-09-16T08:17:43Z</time>
      </trkpt>
      <trkpt lat="48.66357" lon="5.04845">
        <ele>180.658</ele>
        <time>2018-09-16T08:17:48Z</time>
      </trkpt>
      <trkpt lat="48.66357" lon="5.04862">
        <ele>181.226</ele>
        <time>2018-09-16T08:17:53Z</time>
      </trkpt>
      <trkpt lat="48.66354" lon="5.04884">
        <ele>181.461</ele>
        <time>2018-09-16T08:17:58Z</time>
      </trkpt>
      <trkpt lat="48.66348" lon="5.04909">
        <ele>181.21</ele>
        <time>2018-09-16T08:18:03Z</time>
      </trkpt>
      <trkpt lat="48.66346" lon="5.04929">
        <ele>181.884</ele>
        <time>2018-09-16T08:18:08Z</time>
      </trkpt>
      <trkpt lat="48.6634" lon="5.04963">
        <ele>181.733</ele>
        <time>2018-09-16T08:18:13Z</time>
      </trkpt>
      <trkpt lat="48.66332" lon="5.04996">
        <ele>181.006</ele>
        <time>2018-09-16T08:18:18Z</time>
      </trkpt>
      <trkpt lat="48.6633" lon="5.05033">
        <ele>178.509</ele>
        <time>2018-09-16T08:18:23Z</time>
      </trkpt>
      <trkpt lat="48.66302" lon="5.05043">
        <ele>179.323</ele>
        <time>2018-09-16T08:18:28Z</time>
      </trkpt>
      <trkpt lat="48.66292" lon="5.0503">
        <ele>180.314</ele>
        <time>2018-09-16T08:18:33Z</time>
      </trkpt>
      <trkpt lat="48.66278" lon="5.0502">
        <ele>181.625</ele>
        <time>2018-09-16T08:18:38Z</time>
      </trkpt>
      <trkpt lat="48.66264" lon="5.05009">
        <ele>182.335</ele>
        <time>2018-09-16T08:18:43Z</time>
      </trkpt>
      <trkpt lat="48.66248" lon="5.04999">
        <ele>183.654</ele>
        <time>2018-09-16T08:18:48Z</time>
      </trkpt>
      <trkpt lat="48.66234" lon="5.04992">
        <ele>184.663</ele>
        <time>2018-09-16T08:18:53Z</time>
      </trkpt>
      <trkpt lat="48.66221" lon="5.04994">
        <ele>185.025</ele>
        <time>2018-09-16T08:18:58Z</time>
      </trkpt>
      <trkpt lat="48.66208" lon="5.05001">
        <ele>185.062</ele>
        <time>2018-09-16T08:19:03Z</time>
      </trkpt>
      <trkpt lat="48.662" lon="5.04993">
        <ele>185.691</ele>
        <time>2018-09-16T08:19:08Z</time>
      </trkpt>
      <trkpt lat="48.66198" lon="5.05066">
        <ele>181.088</ele>
        <time>2018-09-16T08:19:31Z</time>
      </trkpt>
      <trkpt lat="48.66195" lon="5.051">
        <ele>179.976</ele>
        <time>2018-09-16T08:19:36Z</time>
      </trkpt>
      <trkpt lat="48.66185" lon="5.05121">
        <ele>180.634</ele>
        <time>2018-09-16T08:19:41Z</time>
      </trkpt>
      <trkpt lat="48.66174" lon="5.05117">
        <ele>180.578</ele>
        <time>2018-09-16T08:19:46Z</time>
      </trkpt>
      <trkpt lat="48.66136" lon="5.05131">
        <ele>181.529</ele>
        <time>2018-09-16T08:20:12Z</time>
      </trkpt>
      <trkpt lat="48.66119" lon="5.05143">
        <ele>181.794</ele>
        <time>2018-09-16T08:20:17Z</time>
      </trkpt>
      <trkpt lat="48.66102" lon="5.05167">
        <ele>180.98</ele>
        <time>2018-09-16T08:20:22Z</time>
      </trkpt>
      <trkpt lat="48.66075" lon="5.05173">
        <ele>181.667</ele>
        <time>2018-09-16T08:20:27Z</time>
      </trkpt>
      <trkpt lat="48.66054" lon="5.05164">
        <ele>181.944</ele>
        <time>2018-09-16T08:20:32Z</time>
      </trkpt>
      <trkpt lat="48.66049" lon="5.05152">
        <ele>182.28</ele>
        <time>2018-09-16T08:20:37Z</time>
      </trkpt>
      <trkpt lat="48.66026" lon="5.05148">
        <ele>180.877</ele>
        <time>2018-09-16T08:20:47Z</time>
      </trkpt>
      <trkpt lat="48.66011" lon="5.05154">
        <ele>180.486</ele>
        <time>2018-09-16T08:20:52Z</time>
      </trkpt>
      <trkpt lat="48.65988" lon="5.05153">
        <ele>180.716</ele>
        <time>2018-09-16T08:20:57Z</time>
      </trkpt>
      <trkpt lat="48.65982" lon="5.05155">
        <ele>178.488</ele>
        <time>2018-09-16T08:21:02Z</time>
      </trkpt>
      <trkpt lat="48.65966" lon="5.05174">
        <ele>177.257</ele>
        <time>2018-09-16T08:21:07Z</time>
      </trkpt>
      <trkpt lat="48.65958" lon="5.05182">
        <ele>176.253</ele>
        <time>2018-09-16T08:21:12Z</time>
      </trkpt>
      <trkpt lat="48.65951" lon="5.05193">
        <ele>174.858</ele>
        <time>2018-09-16T08:21:17Z</time>
      </trkpt>
      <trkpt lat="48.65944" lon="5.05198">
        <ele>174.72</ele>
        <time>2018-09-16T08:21:22Z</time>
      </trkpt>
      <trkpt lat="48.6592" lon="5.05232">
        <ele>177.664</ele>
        <time>2018-09-16T08:21:47Z</time>
      </trkpt>
      <trkpt lat="48.65916" lon="5.0525">
        <ele>179.173</ele>
        <time>2018-09-16T08:21:52Z</time>
      </trkpt>
      <trkpt lat="48.65916" lon="5.05263">
        <ele>179.693</ele>
        <time>2018-09-16T08:21:57Z</time>
      </trkpt>
      <trkpt lat="48.6592" lon="5.05277">
        <ele>180.174</ele>
        <time>2018-09-16T08:22:02Z</time>
      </trkpt>
      <trkpt lat="48.65931" lon="5.05296">
        <ele>180.375</ele>
        <time>2018-09-16T08:22:07Z</time>
      </trkpt>
      <trkpt lat="48.6594" lon="5.05316">
        <ele>180.417</ele>
        <time>2018-09-16T08:22:12Z</time>
      </trkpt>
      <trkpt lat="48.6595" lon="5.05344">
        <ele>179.934</ele>
        <time>2018-09-16T08:22:17Z</time>
      </trkpt>
      <trkpt lat="48.65963" lon="5.05383">
        <ele>178.874</ele>
        <time>2018-09-16T08:22:23Z</time>
      </trkpt>
      <trkpt lat="48.6598" lon="5.05427">
        <ele>177.579</ele>
        <time>2018-09-16T08:22:28Z</time>
      </trkpt>
      <trkpt lat="48.65989" lon="5.05449">
        <ele>176.641</ele>
        <time>2018-09-16T08:22:33Z</time>
      </trkpt>
      <trkpt lat="48.65991" lon="5.05457">
        <ele>176.015</ele>
        <time>2018-09-16T08:22:42Z</time>
      </trkpt>
      <trkpt lat="48.66" lon="5.05525">
        <ele>175.722</ele>
        <time>2018-09-16T08:22:56Z</time>
      </trkpt>
      <trkpt lat="48.65991" lon="5.05557">
        <ele>176.462</ele>
        <time>2018-09-16T08:23:01Z</time>
      </trkpt>
      <trkpt lat="48.65984" lon="5.05584">
        <ele>176.026</ele>
        <time>2018-09-16T08:23:06Z</time>
      </trkpt>
      <trkpt lat="48.65983" lon="5.05608">
        <ele>175.458</ele>
        <time>2018-09-16T08:23:11Z</time>
      </trkpt>
      <trkpt lat="48.65976" lon="5.05638">
        <ele>175.23</ele>
        <time>2018-09-16T08:23:16Z</time>
      </trkpt>
      <trkpt lat="48.6596" lon="5.05645">
        <ele>174.757</ele>
        <time>2018-09-16T08:23:21Z</time>
      </trkpt>
      <trkpt lat="48.6594" lon="5.05651">
        <ele>175.019</ele>
        <time>2018-09-16T08:23:26Z</time>
      </trkpt>
      <trkpt lat="48.65915" lon="5.05644">
        <ele>175.397</ele>
        <time>2018-09-16T08:23:31Z</time>
      </trkpt>
      <trkpt lat="48.65902" lon="5.05646">
        <ele>174.525</ele>
        <time>2018-09-16T08:23:36Z</time>
      </trkpt>
      <trkpt lat="48.65891" lon="5.05652">
        <ele>174.916</ele>
        <time>2018-09-16T08:23:41Z</time>
      </trkpt>
      <trkpt lat="48.65883" lon="5.0567">
        <ele>174.794</ele>
        <time>2018-09-16T08:23:46Z</time>
      </trkpt>
      <trkpt lat="48.65868" lon="5.05678">
        <ele>175.191</ele>
        <time>2018-09-16T08:23:51Z</time>
      </trkpt>
      <trkpt lat="48.65857" lon="5.05681">
        <ele>175.777</ele>
        <time>2018-09-16T08:23:56Z</time>
      </trkpt>
      <trkpt lat="48.6584" lon="5.05686">
        <ele>176.031</ele>
        <time>2018-09-16T08:24:01Z</time>
      </trkpt>
      <trkpt lat="48.65829" lon="5.05685">
        <ele>176.982</ele>
        <time>2018-09-16T08:24:06Z</time>
      </trkpt>
      <trkpt lat="48.65817" lon="5.05685">
        <ele>176.319</ele>
        <time>2018-09-16T08:24:11Z</time>
      </trkpt>
      <trkpt lat="48.65815" lon="5.05694">
        <ele>175.555</ele>
        <time>2018-09-16T08:24:16Z</time>
      </trkpt>
      <trkpt lat="48.6573" lon="5.05694">
        <ele>177.46</ele>
        <time>2018-09-16T08:25:04Z</time>
      </trkpt>
      <trkpt lat="48.65685" lon="5.05715">
        <ele>176.256</ele>
        <time>2018-09-16T08:25:41Z</time>
      </trkpt>
      <trkpt lat="48.65668" lon="5.05718">
        <ele>176.462</ele>
        <time>2018-09-16T08:25:46Z</time>
      </trkpt>
      <trkpt lat="48.65648" lon="5.05714">
        <ele>176.068</ele>
        <time>2018-09-16T08:25:52Z</time>
      </trkpt>
      <trkpt lat="48.65633" lon="5.0571">
        <ele>175.775</ele>
        <time>2018-09-16T08:25:58Z</time>
      </trkpt>
      <trkpt lat="48.65622" lon="5.05712">
        <ele>175.399</ele>
        <time>2018-09-16T08:26:03Z</time>
      </trkpt>
      <trkpt lat="48.6561" lon="5.05708">
        <ele>175.431</ele>
        <time>2018-09-16T08:26:08Z</time>
      </trkpt>
      <trkpt lat="48.65593" lon="5.05699">
        <ele>176.34</ele>
        <time>2018-09-16T08:26:13Z</time>
      </trkpt>
      <trkpt lat="48.65569" lon="5.05691">
        <ele>177.114</ele>
        <time>2018-09-16T08:26:19Z</time>
      </trkpt>
      <trkpt lat="48.65561" lon="5.05666">
        <ele>178.163</ele>
        <time>2018-09-16T08:26:24Z</time>
      </trkpt>
      <trkpt lat="48.65556" lon="5.05641">
        <ele>179.196</ele>
        <time>2018-09-16T08:26:29Z</time>
      </trkpt>
      <trkpt lat="48.6555" lon="5.05623">
        <ele>179.743</ele>
        <time>2018-09-16T08:26:34Z</time>
      </trkpt>
      <trkpt lat="48.65542" lon="5.05609">
        <ele>179.648</ele>
        <time>2018-09-16T08:26:39Z</time>
      </trkpt>
      <trkpt lat="48.65536" lon="5.05596">
        <ele>179.664</ele>
        <time>2018-09-16T08:26:44Z</time>
      </trkpt>
      <trkpt lat="48.65532" lon="5.05583">
        <ele>179.767</ele>
        <time>2018-09-16T08:26:49Z</time>
      </trkpt>
      <trkpt lat="48.65531" lon="5.05565">
        <ele>181.001</ele>
        <time>2018-09-16T08:26:54Z</time>
      </trkpt>
      <trkpt lat="48.65536" lon="5.05539">
        <ele>182.198</ele>
        <time>2018-09-16T08:26:59Z</time>
      </trkpt>
      <trkpt lat="48.6554" lon="5.0552">
        <ele>182.999</ele>
        <time>2018-09-16T08:27:04Z</time>
      </trkpt>
      <trkpt lat="48.65548" lon="5.05502">
        <ele>183.524</ele>
        <time>2018-09-16T08:27:09Z</time>
      </trkpt>
      <trkpt lat="48.65553" lon="5.05488">
        <ele>184.201</ele>
        <time>2018-09-16T08:27:14Z</time>
      </trkpt>
      <trkpt lat="48.65554" lon="5.05476">
        <ele>185.104</ele>
        <time>2018-09-16T08:27:19Z</time>
      </trkpt>
      <trkpt lat="48.65557" lon="5.05462">
        <ele>185.921</ele>
        <time>2018-09-16T08:27:24Z</time>
      </trkpt>
      <trkpt lat="48.65558" lon="5.05446">
        <ele>186.552</ele>
        <time>2018-09-16T08:27:29Z</time>
      </trkpt>
      <trkpt lat="48.65559" lon="5.05424">
        <ele>187.644</ele>
        <time>2018-09-16T08:27:34Z</time>
      </trkpt>
      <trkpt lat="48.65558" lon="5.05401">
        <ele>188.5</ele>
        <time>2018-09-16T08:27:39Z</time>
      </trkpt>
      <trkpt lat="48.65554" lon="5.05378">
        <ele>189.337</ele>
        <time>2018-09-16T08:27:44Z</time>
      </trkpt>
      <trkpt lat="48.6555" lon="5.05356">
        <ele>190.703</ele>
        <time>2018-09-16T08:27:49Z</time>
      </trkpt>
      <trkpt lat="48.65547" lon="5.05334">
        <ele>191.824</ele>
        <time>2018-09-16T08:27:54Z</time>
      </trkpt>
      <trkpt lat="48.65543" lon="5.05311">
        <ele>193.071</ele>
        <time>2018-09-16T08:27:59Z</time>
      </trkpt>
      <trkpt lat="48.65543" lon="5.05277">
        <ele>194.16</ele>
        <time>2018-09-16T08:28:04Z</time>
      </trkpt>
      <trkpt lat="48.65542" lon="5.0525">
        <ele>194.265</ele>
        <time>2018-09-16T08:28:09Z</time>
      </trkpt>
      <trkpt lat="48.65542" lon="5.0522">
        <ele>193.351</ele>
        <time>2018-09-16T08:28:14Z</time>
      </trkpt>
      <trkpt lat="48.65542" lon="5.05158">
        <ele>192.025</ele>
        <time>2018-09-16T08:28:22Z</time>
      </trkpt>
      <trkpt lat="48.65536" lon="5.05108">
        <ele>190.061</ele>
        <time>2018-09-16T08:28:27Z</time>
      </trkpt>
      <trkpt lat="48.65542" lon="5.05078">
        <ele>189.047</ele>
        <time>2018-09-16T08:28:32Z</time>
      </trkpt>
      <trkpt lat="48.65564" lon="5.05048">
        <ele>188.434</ele>
        <time>2018-09-16T08:28:37Z</time>
      </trkpt>
      <trkpt lat="48.6559" lon="5.05016">
        <ele>186.685</ele>
        <time>2018-09-16T08:28:42Z</time>
      </trkpt>
      <trkpt lat="48.65614" lon="5.04982">
        <ele>186.233</ele>
        <time>2018-09-16T08:28:47Z</time>
      </trkpt>
      <trkpt lat="48.65632" lon="5.04952">
        <ele>186.008</ele>
        <time>2018-09-16T08:28:52Z</time>
      </trkpt>
      <trkpt lat="48.65652" lon="5.04919">
        <ele>186.024</ele>
        <time>2018-09-16T08:28:57Z</time>
      </trkpt>
      <trkpt lat="48.65674" lon="5.04883">
        <ele>185.984</ele>
        <time>2018-09-16T08:29:02Z</time>
      </trkpt>
      <trkpt lat="48.6568" lon="5.04875">
        <ele>185.414</ele>
        <time>2018-09-16T08:29:07Z</time>
      </trkpt>
      <trkpt lat="48.65575" lon="5.04871">
        <ele>198.39</ele>
        <time>2018-09-16T08:32:19Z</time>
      </trkpt>
      <trkpt lat="48.65585" lon="5.04825">
        <ele>202.641</ele>
        <time>2018-09-16T08:32:44Z</time>
      </trkpt>
      <trkpt lat="48.65593" lon="5.04798">
        <ele>203.009</ele>
        <time>2018-09-16T08:32:49Z</time>
      </trkpt>
      <trkpt lat="48.65593" lon="5.04773">
        <ele>204.079</ele>
        <time>2018-09-16T08:32:54Z</time>
      </trkpt>
      <trkpt lat="48.65587" lon="5.04751">
        <ele>205.384</ele>
        <time>2018-09-16T08:32:59Z</time>
      </trkpt>
      <trkpt lat="48.65591" lon="5.04731">
        <ele>205.833</ele>
        <time>2018-09-16T08:33:04Z</time>
      </trkpt>
      <trkpt lat="48.65588" lon="5.04711">
        <ele>207.231</ele>
        <time>2018-09-16T08:33:09Z</time>
      </trkpt>
      <trkpt lat="48.6559" lon="5.04683">
        <ele>208.121</ele>
        <time>2018-09-16T08:33:14Z</time>
      </trkpt>
      <trkpt lat="48.65589" lon="5.04662">
        <ele>210.28</ele>
        <time>2018-09-16T08:33:19Z</time>
      </trkpt>
      <trkpt lat="48.65587" lon="5.04654">
        <ele>210.454</ele>
        <time>2018-09-16T08:33:24Z</time>
      </trkpt>
      <trkpt lat="48.65604" lon="5.04591">
        <ele>215.89</ele>
        <time>2018-09-16T08:34:09Z</time>
      </trkpt>
      <trkpt lat="48.65611" lon="5.0458">
        <ele>215.908</ele>
        <time>2018-09-16T08:34:14Z</time>
      </trkpt>
      <trkpt lat="48.65619" lon="5.04572">
        <ele>215.993</ele>
        <time>2018-09-16T08:34:19Z</time>
      </trkpt>
      <trkpt lat="48.65625" lon="5.04564">
        <ele>216.331</ele>
        <time>2018-09-16T08:34:24Z</time>
      </trkpt>
      <trkpt lat="48.65634" lon="5.04551">
        <ele>216.262</ele>
        <time>2018-09-16T08:34:29Z</time>
      </trkpt>
      <trkpt lat="48.65661" lon="5.04505">
        <ele>217.533</ele>
        <time>2018-09-16T08:35:02Z</time>
      </trkpt>
      <trkpt lat="48.65669" lon="5.04487">
        <ele>219.417</ele>
        <time>2018-09-16T08:35:11Z</time>
      </trkpt>
      <trkpt lat="48.65683" lon="5.04472">
        <ele>218.928</ele>
        <time>2018-09-16T08:35:16Z</time>
      </trkpt>
      <trkpt lat="48.65702" lon="5.04459">
        <ele>217.544</ele>
        <time>2018-09-16T08:35:21Z</time>
      </trkpt>
      <trkpt lat="48.65714" lon="5.04456">
        <ele>217.837</ele>
        <time>2018-09-16T08:35:26Z</time>
      </trkpt>
      <trkpt lat="48.65725" lon="5.04447">
        <ele>217.346</ele>
        <time>2018-09-16T08:35:31Z</time>
      </trkpt>
      <trkpt lat="48.65743" lon="5.04427">
        <ele>218.244</ele>
        <time>2018-09-16T08:35:36Z</time>
      </trkpt>
      <trkpt lat="48.65756" lon="5.04413">
        <ele>216.923</ele>
        <time>2018-09-16T08:35:41Z</time>
      </trkpt>
      <trkpt lat="48.65761" lon="5.04404">
        <ele>216.402</ele>
        <time>2018-09-16T08:35:46Z</time>
      </trkpt>
      <trkpt lat="48.65761" lon="5.04401">
        <ele>216.875</ele>
        <time>2018-09-16T08:35:51Z</time>
      </trkpt>
      <trkpt lat="48.65743" lon="5.04439">
        <ele>216.925</ele>
        <time>2018-09-16T08:36:46Z</time>
      </trkpt>
      <trkpt lat="48.65725" lon="5.0445">
        <ele>217.853</ele>
        <time>2018-09-16T08:36:51Z</time>
      </trkpt>
      <trkpt lat="48.6571" lon="5.04458">
        <ele>218.207</ele>
        <time>2018-09-16T08:36:56Z</time>
      </trkpt>
      <trkpt lat="48.65701" lon="5.0446">
        <ele>218.64</ele>
        <time>2018-09-16T08:37:01Z</time>
      </trkpt>
      <trkpt lat="48.65692" lon="5.0447">
        <ele>218.767</ele>
        <time>2018-09-16T08:37:06Z</time>
      </trkpt>
      <trkpt lat="48.65689" lon="5.04479">
        <ele>218.897</ele>
        <time>2018-09-16T08:37:11Z</time>
      </trkpt>
      <trkpt lat="48.65693" lon="5.045">
        <ele>217.467</ele>
        <time>2018-09-16T08:37:16Z</time>
      </trkpt>
      <trkpt lat="48.65685" lon="5.04515">
        <ele>216.32</ele>
        <time>2018-09-16T08:37:21Z</time>
      </trkpt>
      <trkpt lat="48.65673" lon="5.04525">
        <ele>216.82</ele>
        <time>2018-09-16T08:37:26Z</time>
      </trkpt>
      <trkpt lat="48.65632" lon="5.0459">
        <ele>216.273</ele>
        <time>2018-09-16T08:39:08Z</time>
      </trkpt>
      <trkpt lat="48.65625" lon="5.04598">
        <ele>216.312</ele>
        <time>2018-09-16T08:39:13Z</time>
      </trkpt>
      <trkpt lat="48.65621" lon="5.04608">
        <ele>214.748</ele>
        <time>2018-09-16T08:39:19Z</time>
      </trkpt>
      <trkpt lat="48.65614" lon="5.04627">
        <ele>212.529</ele>
        <time>2018-09-16T08:39:24Z</time>
      </trkpt>
      <trkpt lat="48.65608" lon="5.04638">
        <ele>212.489</ele>
        <time>2018-09-16T08:39:29Z</time>
      </trkpt>
      <trkpt lat="48.65593" lon="5.04652">
        <ele>213.168</ele>
        <time>2018-09-16T08:39:34Z</time>
      </trkpt>
      <trkpt lat="48.65576" lon="5.04655">
        <ele>215.152</ele>
        <time>2018-09-16T08:39:39Z</time>
      </trkpt>
      <trkpt lat="48.65563" lon="5.04662">
        <ele>217.779</ele>
        <time>2018-09-16T08:39:44Z</time>
      </trkpt>
      <trkpt lat="48.65555" lon="5.04665">
        <ele>219.05</ele>
        <time>2018-09-16T08:39:49Z</time>
      </trkpt>
      <trkpt lat="48.65549" lon="5.04673">
        <ele>219.169</ele>
        <time>2018-09-16T08:39:54Z</time>
      </trkpt>
      <trkpt lat="48.65526" lon="5.04712">
        <ele>220.495</ele>
        <time>2018-09-16T08:40:29Z</time>
      </trkpt>
      <trkpt lat="48.65514" lon="5.04726">
        <ele>221.806</ele>
        <time>2018-09-16T08:40:34Z</time>
      </trkpt>
      <trkpt lat="48.65508" lon="5.04737">
        <ele>222.022</ele>
        <time>2018-09-16T08:40:39Z</time>
      </trkpt>
      <trkpt lat="48.65503" lon="5.04749">
        <ele>222.054</ele>
        <time>2018-09-16T08:40:44Z</time>
      </trkpt>
      <trkpt lat="48.65498" lon="5.04766">
        <ele>221.935</ele>
        <time>2018-09-16T08:40:49Z</time>
      </trkpt>
      <trkpt lat="48.65488" lon="5.04781">
        <ele>222.516</ele>
        <time>2018-09-16T08:40:54Z</time>
      </trkpt>
      <trkpt lat="48.6547" lon="5.04797">
        <ele>222.649</ele>
        <time>2018-09-16T08:40:59Z</time>
      </trkpt>
      <trkpt lat="48.65451" lon="5.04819">
        <ele>222.305</ele>
        <time>2018-09-16T08:41:04Z</time>
      </trkpt>
      <trkpt lat="48.65436" lon="5.0484">
        <ele>222.754</ele>
        <time>2018-09-16T08:41:09Z</time>
      </trkpt>
      <trkpt lat="48.65421" lon="5.04858">
        <ele>222.63</ele>
        <time>2018-09-16T08:41:14Z</time>
      </trkpt>
      <trkpt lat="48.65407" lon="5.04874">
        <ele>222.989</ele>
        <time>2018-09-16T08:41:19Z</time>
      </trkpt>
      <trkpt lat="48.65394" lon="5.04874">
        <ele>223.724</ele>
        <time>2018-09-16T08:41:24Z</time>
      </trkpt>
      <trkpt lat="48.65388" lon="5.04869">
        <ele>224.149</ele>
        <time>2018-09-16T08:41:29Z</time>
      </trkpt>
      <trkpt lat="48.65383" lon="5.04881">
        <ele>222.979</ele>
        <time>2018-09-16T08:41:39Z</time>
      </trkpt>
      <trkpt lat="48.65378" lon="5.04892">
        <ele>223.198</ele>
        <time>2018-09-16T08:41:49Z</time>
      </trkpt>
      <trkpt lat="48.65344" lon="5.04949">
        <ele>224.239</ele>
        <time>2018-09-16T08:42:17Z</time>
      </trkpt>
      <trkpt lat="48.65342" lon="5.04967">
        <ele>223.095</ele>
        <time>2018-09-16T08:42:22Z</time>
      </trkpt>
      <trkpt lat="48.65336" lon="5.04983">
        <ele>223.721</ele>
        <time>2018-09-16T08:42:27Z</time>
      </trkpt>
      <trkpt lat="48.65328" lon="5.04999">
        <ele>224.07</ele>
        <time>2018-09-16T08:42:32Z</time>
      </trkpt>
      <trkpt lat="48.65323" lon="5.05009">
        <ele>224.139</ele>
        <time>2018-09-16T08:42:37Z</time>
      </trkpt>
      <trkpt lat="48.65303" lon="5.0506">
        <ele>223.885</ele>
        <time>2018-09-16T08:43:07Z</time>
      </trkpt>
      <trkpt lat="48.65294" lon="5.05081">
        <ele>223.61</ele>
        <time>2018-09-16T08:43:12Z</time>
      </trkpt>
      <trkpt lat="48.65282" lon="5.05104">
        <ele>223.967</ele>
        <time>2018-09-16T08:43:17Z</time>
      </trkpt>
      <trkpt lat="48.65273" lon="5.05123">
        <ele>224.144</ele>
        <time>2018-09-16T08:43:22Z</time>
      </trkpt>
      <trkpt lat="48.6526" lon="5.05138">
        <ele>223.999</ele>
        <time>2018-09-16T08:43:27Z</time>
      </trkpt>
      <trkpt lat="48.65245" lon="5.05157">
        <ele>224.112</ele>
        <time>2018-09-16T08:43:32Z</time>
      </trkpt>
      <trkpt lat="48.65227" lon="5.05178">
        <ele>223.835</ele>
        <time>2018-09-16T08:43:37Z</time>
      </trkpt>
      <trkpt lat="48.6521" lon="5.05198">
        <ele>223.629</ele>
        <time>2018-09-16T08:43:42Z</time>
      </trkpt>
      <trkpt lat="48.65196" lon="5.05212">
        <ele>223.351</ele>
        <time>2018-09-16T08:43:47Z</time>
      </trkpt>
      <trkpt lat="48.65179" lon="5.05233">
        <ele>223.322</ele>
        <time>2018-09-16T08:43:52Z</time>
      </trkpt>
      <trkpt lat="48.65155" lon="5.05251">
        <ele>223.983</ele>
        <time>2018-09-16T08:43:57Z</time>
      </trkpt>
      <trkpt lat="48.65134" lon="5.05261">
        <ele>224.591</ele>
        <time>2018-09-16T08:44:02Z</time>
      </trkpt>
      <trkpt lat="48.65127" lon="5.05274">
        <ele>224.567</ele>
        <time>2018-09-16T08:44:07Z</time>
      </trkpt>
      <trkpt lat="48.65128" lon="5.05297">
        <ele>223.026</ele>
        <time>2018-09-16T08:44:12Z</time>
      </trkpt>
      <trkpt lat="48.65115" lon="5.05315">
        <ele>223.246</ele>
        <time>2018-09-16T08:44:17Z</time>
      </trkpt>
      <trkpt lat="48.65106" lon="5.05324">
        <ele>223.333</ele>
        <time>2018-09-16T08:44:22Z</time>
      </trkpt>
      <trkpt lat="48.65101" lon="5.05325">
        <ele>223.439</ele>
        <time>2018-09-16T08:44:27Z</time>
      </trkpt>
      <trkpt lat="48.65056" lon="5.05374">
        <ele>223.452</ele>
        <time>2018-09-16T08:44:44Z</time>
      </trkpt>
      <trkpt lat="48.6504" lon="5.05385">
        <ele>223.227</ele>
        <time>2018-09-16T08:44:49Z</time>
      </trkpt>
      <trkpt lat="48.65023" lon="5.05406">
        <ele>223.14</ele>
        <time>2018-09-16T08:44:54Z</time>
      </trkpt>
      <trkpt lat="48.64998" lon="5.05431">
        <ele>223.449</ele>
        <time>2018-09-16T08:44:59Z</time>
      </trkpt>
      <trkpt lat="48.64983" lon="5.05448">
        <ele>222.984</ele>
        <time>2018-09-16T08:45:04Z</time>
      </trkpt>
      <trkpt lat="48.64971" lon="5.0547">
        <ele>222.976</ele>
        <time>2018-09-16T08:45:09Z</time>
      </trkpt>
      <trkpt lat="48.64957" lon="5.05497">
        <ele>222.58</ele>
        <time>2018-09-16T08:45:14Z</time>
      </trkpt>
      <trkpt lat="48.64943" lon="5.05521">
        <ele>223.293</ele>
        <time>2018-09-16T08:45:19Z</time>
      </trkpt>
      <trkpt lat="48.64925" lon="5.05541">
        <ele>223.188</ele>
        <time>2018-09-16T08:45:24Z</time>
      </trkpt>
      <trkpt lat="48.64905" lon="5.05559">
        <ele>223.758</ele>
        <time>2018-09-16T08:45:29Z</time>
      </trkpt>
      <trkpt lat="48.64893" lon="5.05565">
        <ele>224.725</ele>
        <time>2018-09-16T08:45:34Z</time>
      </trkpt>
      <trkpt lat="48.64885" lon="5.05573">
        <ele>224.966</ele>
        <time>2018-09-16T08:45:39Z</time>
      </trkpt>
      <trkpt lat="48.64887" lon="5.0559">
        <ele>220.569</ele>
        <time>2018-09-16T08:46:18Z</time>
      </trkpt>
      <trkpt lat="48.64881" lon="5.05599">
        <ele>219.293</ele>
        <time>2018-09-16T08:46:23Z</time>
      </trkpt>
      <trkpt lat="48.64873" lon="5.05619">
        <ele>217.425</ele>
        <time>2018-09-16T08:46:28Z</time>
      </trkpt>
      <trkpt lat="48.64867" lon="5.05634">
        <ele>215.929</ele>
        <time>2018-09-16T08:46:33Z</time>
      </trkpt>
      <trkpt lat="48.6486" lon="5.05649">
        <ele>216.053</ele>
        <time>2018-09-16T08:46:37Z</time>
      </trkpt>
      <trkpt lat="48.64839" lon="5.05658">
        <ele>215.866</ele>
        <time>2018-09-16T08:46:44Z</time>
      </trkpt>
      <trkpt lat="48.64634" lon="5.05787">
        <ele>214.524</ele>
        <time>2018-09-16T08:50:47Z</time>
      </trkpt>
      <trkpt lat="48.64624" lon="5.05793">
        <ele>214.085</ele>
        <time>2018-09-16T08:50:52Z</time>
      </trkpt>
      <trkpt lat="48.6452" lon="5.05795">
        <ele>220.799</ele>
        <time>2018-09-16T08:53:31Z</time>
      </trkpt>
      <trkpt lat="48.64512" lon="5.058">
        <ele>222.033</ele>
        <time>2018-09-16T08:53:36Z</time>
      </trkpt>
      <trkpt lat="48.64504" lon="5.05802">
        <ele>222.863</ele>
        <time>2018-09-16T08:53:41Z</time>
      </trkpt>
      <trkpt lat="48.64492" lon="5.05801">
        <ele>222.717</ele>
        <time>2018-09-16T08:53:46Z</time>
      </trkpt>
      <trkpt lat="48.64478" lon="5.05799">
        <ele>221.75</ele>
        <time>2018-09-16T08:53:51Z</time>
      </trkpt>
      <trkpt lat="48.64469" lon="5.05797">
        <ele>221.433</ele>
        <time>2018-09-16T08:53:56Z</time>
      </trkpt>
      <trkpt lat="48.64463" lon="5.05797">
        <ele>221.436</ele>
        <time>2018-09-16T08:54:01Z</time>
      </trkpt>
      <trkpt lat="48.64447" lon="5.05789">
        <ele>222.617</ele>
        <time>2018-09-16T08:54:06Z</time>
      </trkpt>
      <trkpt lat="48.64443" lon="5.05783">
        <ele>223.801</ele>
        <time>2018-09-16T08:54:11Z</time>
      </trkpt>
      <trkpt lat="48.64437" lon="5.05785">
        <ele>223.552</ele>
        <time>2018-09-16T08:54:16Z</time>
      </trkpt>
      <trkpt lat="48.64389" lon="5.05801">
        <ele>220.701</ele>
        <time>2018-09-16T08:54:45Z</time>
      </trkpt>
      <trkpt lat="48.64362" lon="5.0575">
        <ele>227.035</ele>
        <time>2018-09-16T08:56:41Z</time>
      </trkpt>
      <trkpt lat="48.64354" lon="5.05746">
        <ele>228.316</ele>
        <time>2018-09-16T08:56:47Z</time>
      </trkpt>
      <trkpt lat="48.64342" lon="5.05741">
        <ele>228.765</ele>
        <time>2018-09-16T08:56:52Z</time>
      </trkpt>
      <trkpt lat="48.64331" lon="5.05733">
        <ele>229.989</ele>
        <time>2018-09-16T08:56:57Z</time>
      </trkpt>
      <trkpt lat="48.64312" lon="5.0572">
        <ele>231.062</ele>
        <time>2018-09-16T08:57:05Z</time>
      </trkpt>
      <trkpt lat="48.643" lon="5.05709">
        <ele>231.091</ele>
        <time>2018-09-16T08:57:10Z</time>
      </trkpt>
      <trkpt lat="48.64287" lon="5.05706">
        <ele>231.931</ele>
        <time>2018-09-16T08:57:15Z</time>
      </trkpt>
      <trkpt lat="48.64274" lon="5.05704">
        <ele>232.372</ele>
        <time>2018-09-16T08:57:20Z</time>
      </trkpt>
      <trkpt lat="48.64259" lon="5.05701">
        <ele>233.189</ele>
        <time>2018-09-16T08:57:25Z</time>
      </trkpt>
      <trkpt lat="48.64246" lon="5.057">
        <ele>233.654</ele>
        <time>2018-09-16T08:57:30Z</time>
      </trkpt>
      <trkpt lat="48.64236" lon="5.05694">
        <ele>234.386</ele>
        <time>2018-09-16T08:57:35Z</time>
      </trkpt>
      <trkpt lat="48.6422" lon="5.05689">
        <ele>234.822</ele>
        <time>2018-09-16T08:57:40Z</time>
      </trkpt>
      <trkpt lat="48.64202" lon="5.05685">
        <ele>235.715</ele>
        <time>2018-09-16T08:57:47Z</time>
      </trkpt>
      <trkpt lat="48.64187" lon="5.05678">
        <ele>236.542</ele>
        <time>2018-09-16T08:57:52Z</time>
      </trkpt>
      <trkpt lat="48.64173" lon="5.05675">
        <ele>237.448</ele>
        <time>2018-09-16T08:57:57Z</time>
      </trkpt>
      <trkpt lat="48.64158" lon="5.05671">
        <ele>238.164</ele>
        <time>2018-09-16T08:58:02Z</time>
      </trkpt>
      <trkpt lat="48.64144" lon="5.05661">
        <ele>238.661</ele>
        <time>2018-09-16T08:58:07Z</time>
      </trkpt>
      <trkpt lat="48.64134" lon="5.05647">
        <ele>239.279</ele>
        <time>2018-09-16T08:58:12Z</time>
      </trkpt>
      <trkpt lat="48.64134" lon="5.0564">
        <ele>238.917</ele>
        <time>2018-09-16T08:58:17Z</time>
      </trkpt>
      <trkpt lat="48.64141" lon="5.05634">
        <ele>238.558</ele>
        <time>2018-09-16T08:58:22Z</time>
      </trkpt>
      <trkpt lat="48.64144" lon="5.05631">
        <ele>239.268</ele>
        <time>2018-09-16T08:58:27Z</time>
      </trkpt>
      <trkpt lat="48.64187" lon="5.05605">
        <ele>240.23</ele>
        <time>2018-09-16T08:59:06Z</time>
      </trkpt>
      <trkpt lat="48.64199" lon="5.05597">
        <ele>240.941</ele>
        <time>2018-09-16T08:59:11Z</time>
      </trkpt>
      <trkpt lat="48.64209" lon="5.05591">
        <ele>241.271</ele>
        <time>2018-09-16T08:59:16Z</time>
      </trkpt>
      <trkpt lat="48.64212" lon="5.05579">
        <ele>241.551</ele>
        <time>2018-09-16T08:59:21Z</time>
      </trkpt>
      <trkpt lat="48.64222" lon="5.05567">
        <ele>241.356</ele>
        <time>2018-09-16T08:59:26Z</time>
      </trkpt>
      <trkpt lat="48.64224" lon="5.05552">
        <ele>242.246</ele>
        <time>2018-09-16T08:59:31Z</time>
      </trkpt>
      <trkpt lat="48.64217" lon="5.0554">
        <ele>242.508</ele>
        <time>2018-09-16T08:59:36Z</time>
      </trkpt>
      <trkpt lat="48.64208" lon="5.05532">
        <ele>242.635</ele>
        <time>2018-09-16T08:59:41Z</time>
      </trkpt>
      <trkpt lat="48.64202" lon="5.0552">
        <ele>242.429</ele>
        <time>2018-09-16T08:59:46Z</time>
      </trkpt>
      <trkpt lat="48.64195" lon="5.05508">
        <ele>242.516</ele>
        <time>2018-09-16T08:59:51Z</time>
      </trkpt>
      <trkpt lat="48.64193" lon="5.05505">
        <ele>242.732</ele>
        <time>2018-09-16T08:59:52Z</time>
      </trkpt>
      <trkpt lat="48.64195" lon="5.05491">
        <ele>242.32</ele>
        <time>2018-09-16T08:59:56Z</time>
      </trkpt>
      <trkpt lat="48.64187" lon="5.05472">
        <ele>242.423</ele>
        <time>2018-09-16T09:00:03Z</time>
      </trkpt>
      <trkpt lat="48.64187" lon="5.05373">
        <ele>239.646</ele>
        <time>2018-09-16T09:00:45Z</time>
      </trkpt>
      <trkpt lat="48.64183" lon="5.05356">
        <ele>239.406</ele>
        <time>2018-09-16T09:00:50Z</time>
      </trkpt>
      <trkpt lat="48.64176" lon="5.05339">
        <ele>239.002</ele>
        <time>2018-09-16T09:00:59Z</time>
      </trkpt>
      <trkpt lat="48.6418" lon="5.05318">
        <ele>238.912</ele>
        <time>2018-09-16T09:01:04Z</time>
      </trkpt>
      <trkpt lat="48.64176" lon="5.05307">
        <ele>238.537</ele>
        <time>2018-09-16T09:01:09Z</time>
      </trkpt>
      <trkpt lat="48.6417" lon="5.05263">
        <ele>236.507</ele>
        <time>2018-09-16T09:01:24Z</time>
      </trkpt>
      <trkpt lat="48.64171" lon="5.05244">
        <ele>235.284</ele>
        <time>2018-09-16T09:01:29Z</time>
      </trkpt>
      <trkpt lat="48.64163" lon="5.05211">
        <ele>233.876</ele>
        <time>2018-09-16T09:01:35Z</time>
      </trkpt>
      <trkpt lat="48.64156" lon="5.05166">
        <ele>231.55</ele>
        <time>2018-09-16T09:01:43Z</time>
      </trkpt>
      <trkpt lat="48.64152" lon="5.05131">
        <ele>229.487</ele>
        <time>2018-09-16T09:01:48Z</time>
      </trkpt>
      <trkpt lat="48.64151" lon="5.05107">
        <ele>228.734</ele>
        <time>2018-09-16T09:01:53Z</time>
      </trkpt>
      <trkpt lat="48.64153" lon="5.05095">
        <ele>228.493</ele>
        <time>2018-09-16T09:01:58Z</time>
      </trkpt>
      <trkpt lat="48.64152" lon="5.05045">
        <ele>226.329</ele>
        <time>2018-09-16T09:02:28Z</time>
      </trkpt>
      <trkpt lat="48.64149" lon="5.04998">
        <ele>224.892</ele>
        <time>2018-09-16T09:02:59Z</time>
      </trkpt>
      <trkpt lat="48.64145" lon="5.04978">
        <ele>223.462</ele>
        <time>2018-09-16T09:03:04Z</time>
      </trkpt>
      <trkpt lat="48.64142" lon="5.04967">
        <ele>223.507</ele>
        <time>2018-09-16T09:03:09Z</time>
      </trkpt>
      <trkpt lat="48.64138" lon="5.04946">
        <ele>223.169</ele>
        <time>2018-09-16T09:03:14Z</time>
      </trkpt>
      <trkpt lat="48.64137" lon="5.04923">
        <ele>222.125</ele>
        <time>2018-09-16T09:03:19Z</time>
      </trkpt>
      <trkpt lat="48.64132" lon="5.04914">
        <ele>220.627</ele>
        <time>2018-09-16T09:03:24Z</time>
      </trkpt>
      <trkpt lat="48.6413" lon="5.04892">
        <ele>219.795</ele>
        <time>2018-09-16T09:03:29Z</time>
      </trkpt>
      <trkpt lat="48.6413" lon="5.04868">
        <ele>220.796</ele>
        <time>2018-09-16T09:03:34Z</time>
      </trkpt>
      <trkpt lat="48.6413" lon="5.04849">
        <ele>223.28</ele>
        <time>2018-09-16T09:03:39Z</time>
      </trkpt>
      <trkpt lat="48.64129" lon="5.04827">
        <ele>225.605</ele>
        <time>2018-09-16T09:03:44Z</time>
      </trkpt>
      <trkpt lat="48.64124" lon="5.04808">
        <ele>227.159</ele>
        <time>2018-09-16T09:03:49Z</time>
      </trkpt>
      <trkpt lat="48.6412" lon="5.04786">
        <ele>228.953</ele>
        <time>2018-09-16T09:03:54Z</time>
      </trkpt>
      <trkpt lat="48.64116" lon="5.04771">
        <ele>229.558</ele>
        <time>2018-09-16T09:03:59Z</time>
      </trkpt>
      <trkpt lat="48.64112" lon="5.0475">
        <ele>229.714</ele>
        <time>2018-09-16T09:04:04Z</time>
      </trkpt>
      <trkpt lat="48.6411" lon="5.04728">
        <ele>229.91</ele>
        <time>2018-09-16T09:04:09Z</time>
      </trkpt>
      <trkpt lat="48.6411" lon="5.04707">
        <ele>229.495</ele>
        <time>2018-09-16T09:04:14Z</time>
      </trkpt>
      <trkpt lat="48.64109" lon="5.04683">
        <ele>227.547</ele>
        <time>2018-09-16T09:04:19Z</time>
      </trkpt>
      <trkpt lat="48.64105" lon="5.04654">
        <ele>225.92</ele>
        <time>2018-09-16T09:04:24Z</time>
      </trkpt>
      <trkpt lat="48.64101" lon="5.04625">
        <ele>225.161</ele>
        <time>2018-09-16T09:04:29Z</time>
      </trkpt>
      <trkpt lat="48.64103" lon="5.04604">
        <ele>225.658</ele>
        <time>2018-09-16T09:04:34Z</time>
      </trkpt>
      <trkpt lat="48.64103" lon="5.0459">
        <ele>224.688</ele>
        <time>2018-09-16T09:04:39Z</time>
      </trkpt>
      <trkpt lat="48.64103" lon="5.04576">
        <ele>223.687</ele>
        <time>2018-09-16T09:04:44Z</time>
      </trkpt>
      <trkpt lat="48.64104" lon="5.04562">
        <ele>223.003</ele>
        <time>2018-09-16T09:04:49Z</time>
      </trkpt>
      <trkpt lat="48.64101" lon="5.04538">
        <ele>222.435</ele>
        <time>2018-09-16T09:04:54Z</time>
      </trkpt>
      <trkpt lat="48.64101" lon="5.04516">
        <ele>221.896</ele>
        <time>2018-09-16T09:04:59Z</time>
      </trkpt>
      <trkpt lat="48.64103" lon="5.04494">
        <ele>221.51</ele>
        <time>2018-09-16T09:05:04Z</time>
      </trkpt>
      <trkpt lat="48.64102" lon="5.0447">
        <ele>220.936</ele>
        <time>2018-09-16T09:05:09Z</time>
      </trkpt>
      <trkpt lat="48.64096" lon="5.04444">
        <ele>220.358</ele>
        <time>2018-09-16T09:05:14Z</time>
      </trkpt>
      <trkpt lat="48.64094" lon="5.04429">
        <ele>220.667</ele>
        <time>2018-09-16T09:05:19Z</time>
      </trkpt>
      <trkpt lat="48.64097" lon="5.04406">
        <ele>221.219</ele>
        <time>2018-09-16T09:05:24Z</time>
      </trkpt>
      <trkpt lat="48.64093" lon="5.04393">
        <ele>221.103</ele>
        <time>2018-09-16T09:05:29Z</time>
      </trkpt>
      <trkpt lat="48.64094" lon="5.04371">
        <ele>221.187</ele>
        <time>2018-09-16T09:05:34Z</time>
      </trkpt>
      <trkpt lat="48.64092" lon="5.04356">
        <ele>221.703</ele>
        <time>2018-09-16T09:05:39Z</time>
      </trkpt>
      <trkpt lat="48.64088" lon="5.04343">
        <ele>222.17</ele>
        <time>2018-09-16T09:05:44Z</time>
      </trkpt>
      <trkpt lat="48.64087" lon="5.0433">
        <ele>221.37</ele>
        <time>2018-09-16T09:05:49Z</time>
      </trkpt>
      <trkpt lat="48.64063" lon="5.04337">
        <ele>222.746</ele>
        <time>2018-09-16T09:06:11Z</time>
      </trkpt>
      <trkpt lat="48.64048" lon="5.04311">
        <ele>222.059</ele>
        <time>2018-09-16T09:06:38Z</time>
      </trkpt>
      <trkpt lat="48.64063" lon="5.04154">
        <ele>231.365</ele>
        <time>2018-09-16T09:09:35Z</time>
      </trkpt>
      <trkpt lat="48.64063" lon="5.04124">
        <ele>231.215</ele>
        <time>2018-09-16T09:09:40Z</time>
      </trkpt>
      <trkpt lat="48.6406" lon="5.04109">
        <ele>231.265</ele>
        <time>2018-09-16T09:09:45Z</time>
      </trkpt>
      <trkpt lat="48.64059" lon="5.04095">
        <ele>231.553</ele>
        <time>2018-09-16T09:09:50Z</time>
      </trkpt>
      <trkpt lat="48.64057" lon="5.04079">
        <ele>231.204</ele>
        <time>2018-09-16T09:09:55Z</time>
      </trkpt>
      <trkpt lat="48.64053" lon="5.04054">
        <ele>230.657</ele>
        <time>2018-09-16T09:10:00Z</time>
      </trkpt>
      <trkpt lat="48.64053" lon="5.04031">
        <ele>230.129</ele>
        <time>2018-09-16T09:10:05Z</time>
      </trkpt>
      <trkpt lat="48.64053" lon="5.0401">
        <ele>230.332</ele>
        <time>2018-09-16T09:10:10Z</time>
      </trkpt>
      <trkpt lat="48.64048" lon="5.0399">
        <ele>229.645</ele>
        <time>2018-09-16T09:10:15Z</time>
      </trkpt>
      <trkpt lat="48.64048" lon="5.03976">
        <ele>229.968</ele>
        <time>2018-09-16T09:10:20Z</time>
      </trkpt>
      <trkpt lat="48.64045" lon="5.03961">
        <ele>229.249</ele>
        <time>2018-09-16T09:10:25Z</time>
      </trkpt>
      <trkpt lat="48.64043" lon="5.03932">
        <ele>229.109</ele>
        <time>2018-09-16T09:10:30Z</time>
      </trkpt>
      <trkpt lat="48.64043" lon="5.03906">
        <ele>228.731</ele>
        <time>2018-09-16T09:10:35Z</time>
      </trkpt>
      <trkpt lat="48.64042" lon="5.03872">
        <ele>228.506</ele>
        <time>2018-09-16T09:10:40Z</time>
      </trkpt>
      <trkpt lat="48.64039" lon="5.03857">
        <ele>227.695</ele>
        <time>2018-09-16T09:10:45Z</time>
      </trkpt>
      <trkpt lat="48.64034" lon="5.03834">
        <ele>227.5</ele>
        <time>2018-09-16T09:10:50Z</time>
      </trkpt>
      <trkpt lat="48.64034" lon="5.03801">
        <ele>227.106</ele>
        <time>2018-09-16T09:10:55Z</time>
      </trkpt>
      <trkpt lat="48.64029" lon="5.03775">
        <ele>226.311</ele>
        <time>2018-09-16T09:11:00Z</time>
      </trkpt>
      <trkpt lat="48.6403" lon="5.03755">
        <ele>225.991</ele>
        <time>2018-09-16T09:11:05Z</time>
      </trkpt>
      <trkpt lat="48.64032" lon="5.03728">
        <ele>225.209</ele>
        <time>2018-09-16T09:11:10Z</time>
      </trkpt>
      <trkpt lat="48.6403" lon="5.03712">
        <ele>224.723</ele>
        <time>2018-09-16T09:11:15Z</time>
      </trkpt>
      <trkpt lat="48.64026" lon="5.03688">
        <ele>224.813</ele>
        <time>2018-09-16T09:11:25Z</time>
      </trkpt>
      <trkpt lat="48.64024" lon="5.03673">
        <ele>224.591</ele>
        <time>2018-09-16T09:11:30Z</time>
      </trkpt>
      <trkpt lat="48.64023" lon="5.03656">
        <ele>224.049</ele>
        <time>2018-09-16T09:11:35Z</time>
      </trkpt>
      <trkpt lat="48.64021" lon="5.03643">
        <ele>223.972</ele>
        <time>2018-09-16T09:11:40Z</time>
      </trkpt>
      <trkpt lat="48.64021" lon="5.03627">
        <ele>223.774</ele>
        <time>2018-09-16T09:11:45Z</time>
      </trkpt>
      <trkpt lat="48.64017" lon="5.03611">
        <ele>223.713</ele>
        <time>2018-09-16T09:11:50Z</time>
      </trkpt>
      <trkpt lat="48.64017" lon="5.03585">
        <ele>223.983</ele>
        <time>2018-09-16T09:11:55Z</time>
      </trkpt>
      <trkpt lat="48.64014" lon="5.03561">
        <ele>223.095</ele>
        <time>2018-09-16T09:11:59Z</time>
      </trkpt>
      <trkpt lat="48.64011" lon="5.03543">
        <ele>223.349</ele>
        <time>2018-09-16T09:12:04Z</time>
      </trkpt>
      <trkpt lat="48.64008" lon="5.03521">
        <ele>222.453</ele>
        <time>2018-09-16T09:12:09Z</time>
      </trkpt>
      <trkpt lat="48.64004" lon="5.035">
        <ele>222.67</ele>
        <time>2018-09-16T09:12:14Z</time>
      </trkpt>
      <trkpt lat="48.64005" lon="5.0347">
        <ele>221.507</ele>
        <time>2018-09-16T09:12:19Z</time>
      </trkpt>
      <trkpt lat="48.64007" lon="5.0345">
        <ele>221.32</ele>
        <time>2018-09-16T09:12:24Z</time>
      </trkpt>
      <trkpt lat="48.64003" lon="5.03405">
        <ele>220.017</ele>
        <time>2018-09-16T09:12:31Z</time>
      </trkpt>
      <trkpt lat="48.63993" lon="5.0337">
        <ele>218.611</ele>
        <time>2018-09-16T09:12:36Z</time>
      </trkpt>
      <trkpt lat="48.6399" lon="5.03334">
        <ele>217.924</ele>
        <time>2018-09-16T09:12:41Z</time>
      </trkpt>
      <trkpt lat="48.63984" lon="5.03299">
        <ele>216.873</ele>
        <time>2018-09-16T09:12:46Z</time>
      </trkpt>
      <trkpt lat="48.63978" lon="5.03256">
        <ele>216.244</ele>
        <time>2018-09-16T09:12:51Z</time>
      </trkpt>
      <trkpt lat="48.63972" lon="5.03226">
        <ele>215.937</ele>
        <time>2018-09-16T09:12:56Z</time>
      </trkpt>
      <trkpt lat="48.63973" lon="5.03208">
        <ele>215.705</ele>
        <time>2018-09-16T09:13:01Z</time>
      </trkpt>
      <trkpt lat="48.63974" lon="5.03193">
        <ele>215.266</ele>
        <time>2018-09-16T09:13:06Z</time>
      </trkpt>
      <trkpt lat="48.6397" lon="5.03173">
        <ele>214.981</ele>
        <time>2018-09-16T09:13:11Z</time>
      </trkpt>
      <trkpt lat="48.63973" lon="5.03155">
        <ele>214.841</ele>
        <time>2018-09-16T09:13:16Z</time>
      </trkpt>
      <trkpt lat="48.63972" lon="5.03136">
        <ele>214.518</ele>
        <time>2018-09-16T09:13:21Z</time>
      </trkpt>
      <trkpt lat="48.63972" lon="5.03113">
        <ele>214.315</ele>
        <time>2018-09-16T09:13:26Z</time>
      </trkpt>
      <trkpt lat="48.63973" lon="5.03106">
        <ele>214.135</ele>
        <time>2018-09-16T09:13:31Z</time>
      </trkpt>
      <trkpt lat="48.63973" lon="5.03083">
        <ele>213.599</ele>
        <time>2018-09-16T09:13:36Z</time>
      </trkpt>
      <trkpt lat="48.63987" lon="5.03033">
        <ele>211.361</ele>
        <time>2018-09-16T09:13:44Z</time>
      </trkpt>
      <trkpt lat="48.63997" lon="5.02991">
        <ele>210.914</ele>
        <time>2018-09-16T09:13:49Z</time>
      </trkpt>
      <trkpt lat="48.64011" lon="5.0295">
        <ele>209.723</ele>
        <time>2018-09-16T09:13:54Z</time>
      </trkpt>
      <trkpt lat="48.64027" lon="5.02895">
        <ele>206.663</ele>
        <time>2018-09-16T09:13:59Z</time>
      </trkpt>
      <trkpt lat="48.64032" lon="5.02876">
        <ele>205.672</ele>
        <time>2018-09-16T09:14:04Z</time>
      </trkpt>
      <trkpt lat="48.64042" lon="5.02865">
        <ele>205.368</ele>
        <time>2018-09-16T09:14:09Z</time>
      </trkpt>
      <trkpt lat="48.64053" lon="5.02868">
        <ele>204.184</ele>
        <time>2018-09-16T09:14:16Z</time>
      </trkpt>
      <trkpt lat="48.64063" lon="5.02879">
        <ele>204.523</ele>
        <time>2018-09-16T09:14:21Z</time>
      </trkpt>
      <trkpt lat="48.64073" lon="5.02875">
        <ele>204.021</ele>
        <time>2018-09-16T09:14:26Z</time>
      </trkpt>
      <trkpt lat="48.64094" lon="5.02871">
        <ele>204.063</ele>
        <time>2018-09-16T09:14:31Z</time>
      </trkpt>
      <trkpt lat="48.64102" lon="5.02859">
        <ele>204.676</ele>
        <time>2018-09-16T09:14:36Z</time>
      </trkpt>
      <trkpt lat="48.64116" lon="5.02847">
        <ele>204.903</ele>
        <time>2018-09-16T09:14:41Z</time>
      </trkpt>
      <trkpt lat="48.64125" lon="5.02847">
        <ele>205.548</ele>
        <time>2018-09-16T09:14:46Z</time>
      </trkpt>
      <trkpt lat="48.64127" lon="5.02828">
        <ele>205.815</ele>
        <time>2018-09-16T09:14:51Z</time>
      </trkpt>
      <trkpt lat="48.6414" lon="5.02817">
        <ele>206.14</ele>
        <time>2018-09-16T09:14:56Z</time>
      </trkpt>
      <trkpt lat="48.64146" lon="5.02814">
        <ele>206.536</ele>
        <time>2018-09-16T09:15:01Z</time>
      </trkpt>
      <trkpt lat="48.64157" lon="5.02788">
        <ele>206.639</ele>
        <time>2018-09-16T09:15:13Z</time>
      </trkpt>
      <trkpt lat="48.64149" lon="5.02772">
        <ele>206.015</ele>
        <time>2018-09-16T09:15:18Z</time>
      </trkpt>
      <trkpt lat="48.64146" lon="5.02756">
        <ele>205.611</ele>
        <time>2018-09-16T09:15:23Z</time>
      </trkpt>
      <trkpt lat="48.64161" lon="5.02736">
        <ele>205.392</ele>
        <time>2018-09-16T09:15:28Z</time>
      </trkpt>
      <trkpt lat="48.64171" lon="5.02723">
        <ele>205.144</ele>
        <time>2018-09-16T09:15:33Z</time>
      </trkpt>
      <trkpt lat="48.64181" lon="5.02708">
        <ele>204.412</ele>
        <time>2018-09-16T09:15:38Z</time>
      </trkpt>
      <trkpt lat="48.64184" lon="5.02703">
        <ele>204.044</ele>
        <time>2018-09-16T09:15:43Z</time>
      </trkpt>
      <trkpt lat="48.64161" lon="5.0262">
        <ele>203.489</ele>
        <time>2018-09-16T09:16:00Z</time>
      </trkpt>
      <trkpt lat="48.64145" lon="5.02567">
        <ele>203.495</ele>
        <time>2018-09-16T09:16:05Z</time>
      </trkpt>
      <trkpt lat="48.64127" lon="5.02517">
        <ele>203.474</ele>
        <time>2018-09-16T09:16:10Z</time>
      </trkpt>
      <trkpt lat="48.64108" lon="5.02469">
        <ele>203.26</ele>
        <time>2018-09-16T09:16:15Z</time>
      </trkpt>
      <trkpt lat="48.64092" lon="5.02426">
        <ele>203.45</ele>
        <time>2018-09-16T09:16:20Z</time>
      </trkpt>
      <trkpt lat="48.64071" lon="5.02381">
        <ele>203.849</ele>
        <time>2018-09-16T09:16:26Z</time>
      </trkpt>
      <trkpt lat="48.64051" lon="5.02348">
        <ele>204.205</ele>
        <time>2018-09-16T09:16:31Z</time>
      </trkpt>
      <trkpt lat="48.64031" lon="5.02316">
        <ele>204.134</ele>
        <time>2018-09-16T09:16:36Z</time>
      </trkpt>
      <trkpt lat="48.64009" lon="5.02292">
        <ele>203.767</ele>
        <time>2018-09-16T09:16:42Z</time>
      </trkpt>
      <trkpt lat="48.63987" lon="5.02273">
        <ele>203.281</ele>
        <time>2018-09-16T09:16:47Z</time>
      </trkpt>
      <trkpt lat="48.63972" lon="5.02261">
        <ele>202.316</ele>
        <time>2018-09-16T09:16:52Z</time>
      </trkpt>
      <trkpt lat="48.63955" lon="5.02251">
        <ele>202.298</ele>
        <time>2018-09-16T09:16:57Z</time>
      </trkpt>
      <trkpt lat="48.63928" lon="5.02237">
        <ele>202.041</ele>
        <time>2018-09-16T09:17:02Z</time>
      </trkpt>
      <trkpt lat="48.63897" lon="5.0222">
        <ele>201.851</ele>
        <time>2018-09-16T09:17:07Z</time>
      </trkpt>
      <trkpt lat="48.63868" lon="5.02205">
        <ele>202.546</ele>
        <time>2018-09-16T09:17:12Z</time>
      </trkpt>
      <trkpt lat="48.63845" lon="5.02195">
        <ele>202.94</ele>
        <time>2018-09-16T09:17:17Z</time>
      </trkpt>
      <trkpt lat="48.63824" lon="5.02181">
        <ele>202.742</ele>
        <time>2018-09-16T09:17:22Z</time>
      </trkpt>
      <trkpt lat="48.63805" lon="5.02174">
        <ele>203.172</ele>
        <time>2018-09-16T09:17:27Z</time>
      </trkpt>
      <trkpt lat="48.63784" lon="5.02155">
        <ele>203.273</ele>
        <time>2018-09-16T09:17:32Z</time>
      </trkpt>
      <trkpt lat="48.63755" lon="5.02132">
        <ele>201.653</ele>
        <time>2018-09-16T09:17:37Z</time>
      </trkpt>
      <trkpt lat="48.63728" lon="5.02105">
        <ele>200.942</ele>
        <time>2018-09-16T09:17:42Z</time>
      </trkpt>
      <trkpt lat="48.63696" lon="5.02074">
        <ele>198.754</ele>
        <time>2018-09-16T09:17:47Z</time>
      </trkpt>
      <trkpt lat="48.63672" lon="5.02045">
        <ele>195.896</ele>
        <time>2018-09-16T09:17:52Z</time>
      </trkpt>
      <trkpt lat="48.63657" lon="5.02021">
        <ele>194.683</ele>
        <time>2018-09-16T09:17:57Z</time>
      </trkpt>
      <trkpt lat="48.63633" lon="5.01998">
        <ele>194.791</ele>
        <time>2018-09-16T09:18:02Z</time>
      </trkpt>
      <trkpt lat="48.63603" lon="5.01977">
        <ele>195.396</ele>
        <time>2018-09-16T09:18:07Z</time>
      </trkpt>
      <trkpt lat="48.63575" lon="5.01965">
        <ele>196.905</ele>
        <time>2018-09-16T09:18:12Z</time>
      </trkpt>
      <trkpt lat="48.63551" lon="5.01954">
        <ele>198.033</ele>
        <time>2018-09-16T09:18:17Z</time>
      </trkpt>
      <trkpt lat="48.63529" lon="5.01942">
        <ele>198.731</ele>
        <time>2018-09-16T09:18:22Z</time>
      </trkpt>
      <trkpt lat="48.6351" lon="5.01933">
        <ele>199.304</ele>
        <time>2018-09-16T09:18:27Z</time>
      </trkpt>
      <trkpt lat="48.63487" lon="5.01918">
        <ele>200.004</ele>
        <time>2018-09-16T09:18:32Z</time>
      </trkpt>
      <trkpt lat="48.63464" lon="5.01901">
        <ele>200.623</ele>
        <time>2018-09-16T09:18:37Z</time>
      </trkpt>
      <trkpt lat="48.63442" lon="5.01885">
        <ele>201.532</ele>
        <time>2018-09-16T09:18:42Z</time>
      </trkpt>
      <trkpt lat="48.6342" lon="5.01872">
        <ele>202.462</ele>
        <time>2018-09-16T09:18:47Z</time>
      </trkpt>
      <trkpt lat="48.63395" lon="5.01858">
        <ele>202.433</ele>
        <time>2018-09-16T09:18:52Z</time>
      </trkpt>
      <trkpt lat="48.63367" lon="5.01838">
        <ele>201.46</ele>
        <time>2018-09-16T09:18:57Z</time>
      </trkpt>
      <trkpt lat="48.63339" lon="5.0181">
        <ele>200.982</ele>
        <time>2018-09-16T09:19:02Z</time>
      </trkpt>
      <trkpt lat="48.63305" lon="5.01786">
        <ele>200.718</ele>
        <time>2018-09-16T09:19:07Z</time>
      </trkpt>
      <trkpt lat="48.63261" lon="5.01771">
        <ele>199.994</ele>
        <time>2018-09-16T09:19:12Z</time>
      </trkpt>
      <trkpt lat="48.63224" lon="5.01759">
        <ele>199.053</ele>
        <time>2018-09-16T09:19:17Z</time>
      </trkpt>
      <trkpt lat="48.63191" lon="5.01746">
        <ele>197.906</ele>
        <time>2018-09-16T09:19:22Z</time>
      </trkpt>
      <trkpt lat="48.63143" lon="5.01725">
        <ele>198.707</ele>
        <time>2018-09-16T09:19:30Z</time>
      </trkpt>
      <trkpt lat="48.63118" lon="5.01715">
        <ele>199.489</ele>
        <time>2018-09-16T09:19:35Z</time>
      </trkpt>
      <trkpt lat="48.6309" lon="5.01697">
        <ele>200.99</ele>
        <time>2018-09-16T09:19:43Z</time>
      </trkpt>
      <trkpt lat="48.63071" lon="5.01687">
        <ele>201.764</ele>
        <time>2018-09-16T09:19:48Z</time>
      </trkpt>
      <trkpt lat="48.63054" lon="5.01679">
        <ele>202.179</ele>
        <time>2018-09-16T09:19:53Z</time>
      </trkpt>
      <trkpt lat="48.63035" lon="5.01669">
        <ele>203.291</ele>
        <time>2018-09-16T09:19:58Z</time>
      </trkpt>
      <trkpt lat="48.63017" lon="5.01656">
        <ele>203.598</ele>
        <time>2018-09-16T09:20:03Z</time>
      </trkpt>
      <trkpt lat="48.62997" lon="5.01642">
        <ele>203.603</ele>
        <time>2018-09-16T09:20:08Z</time>
      </trkpt>
      <trkpt lat="48.62977" lon="5.0163">
        <ele>203.666</ele>
        <time>2018-09-16T09:20:13Z</time>
      </trkpt>
      <trkpt lat="48.62956" lon="5.01618">
        <ele>203.487</ele>
        <time>2018-09-16T09:20:18Z</time>
      </trkpt>
      <trkpt lat="48.62935" lon="5.01605">
        <ele>203.836</ele>
        <time>2018-09-16T09:20:23Z</time>
      </trkpt>
      <trkpt lat="48.62912" lon="5.01593">
        <ele>204.198</ele>
        <time>2018-09-16T09:20:28Z</time>
      </trkpt>
      <trkpt lat="48.6289" lon="5.01579">
        <ele>204.058</ele>
        <time>2018-09-16T09:20:33Z</time>
      </trkpt>
      <trkpt lat="48.62865" lon="5.01569">
        <ele>204.385</ele>
        <time>2018-09-16T09:20:38Z</time>
      </trkpt>
      <trkpt lat="48.62843" lon="5.01557">
        <ele>204.615</ele>
        <time>2018-09-16T09:20:43Z</time>
      </trkpt>
      <trkpt lat="48.6282" lon="5.01554">
        <ele>204.343</ele>
        <time>2018-09-16T09:20:48Z</time>
      </trkpt>
      <trkpt lat="48.62793" lon="5.01548">
        <ele>204.335</ele>
        <time>2018-09-16T09:20:53Z</time>
      </trkpt>
      <trkpt lat="48.62761" lon="5.01536">
        <ele>203.265</ele>
        <time>2018-09-16T09:20:58Z</time>
      </trkpt>
      <trkpt lat="48.62725" lon="5.01527">
        <ele>202.02</ele>
        <time>2018-09-16T09:21:03Z</time>
      </trkpt>
      <trkpt lat="48.62682" lon="5.01524">
        <ele>200.427</ele>
        <time>2018-09-16T09:21:08Z</time>
      </trkpt>
      <trkpt lat="48.62634" lon="5.01519">
        <ele>198.805</ele>
        <time>2018-09-16T09:21:13Z</time>
      </trkpt>
      <trkpt lat="48.62583" lon="5.01515">
        <ele>195.613</ele>
        <time>2018-09-16T09:21:18Z</time>
      </trkpt>
      <trkpt lat="48.62532" lon="5.0151">
        <ele>194.852</ele>
        <time>2018-09-16T09:21:23Z</time>
      </trkpt>
      <trkpt lat="48.62485" lon="5.0151">
        <ele>193.742</ele>
        <time>2018-09-16T09:21:28Z</time>
      </trkpt>
      <trkpt lat="48.62441" lon="5.01515">
        <ele>192.326</ele>
        <time>2018-09-16T09:21:33Z</time>
      </trkpt>
      <trkpt lat="48.62396" lon="5.01526">
        <ele>190.328</ele>
        <time>2018-09-16T09:21:38Z</time>
      </trkpt>
      <trkpt lat="48.62339" lon="5.01548">
        <ele>187.966</ele>
        <time>2018-09-16T09:21:43Z</time>
      </trkpt>
      <trkpt lat="48.6229" lon="5.01575">
        <ele>185.694</ele>
        <time>2018-09-16T09:21:48Z</time>
      </trkpt>
      <trkpt lat="48.6225" lon="5.01602">
        <ele>183.606</ele>
        <time>2018-09-16T09:21:53Z</time>
      </trkpt>
      <trkpt lat="48.62199" lon="5.01634">
        <ele>179.712</ele>
        <time>2018-09-16T09:21:58Z</time>
      </trkpt>
      <trkpt lat="48.62143" lon="5.01622">
        <ele>176.607</ele>
        <time>2018-09-16T09:22:03Z</time>
      </trkpt>
      <trkpt lat="48.62103" lon="5.01565">
        <ele>174.361</ele>
        <time>2018-09-16T09:22:08Z</time>
      </trkpt>
      <trkpt lat="48.62079" lon="5.01491">
        <ele>172.128</ele>
        <time>2018-09-16T09:22:13Z</time>
      </trkpt>
      <trkpt lat="48.62063" lon="5.0141">
        <ele>168.936</ele>
        <time>2018-09-16T09:22:18Z</time>
      </trkpt>
      <trkpt lat="48.62037" lon="5.01336">
        <ele>168.323</ele>
        <time>2018-09-16T09:22:23Z</time>
      </trkpt>
      <trkpt lat="48.61989" lon="5.01289">
        <ele>164.032</ele>
        <time>2018-09-16T09:22:28Z</time>
      </trkpt>
      <trkpt lat="48.61937" lon="5.01248">
        <ele>157.638</ele>
        <time>2018-09-16T09:22:33Z</time>
      </trkpt>
      <trkpt lat="48.61886" lon="5.01216">
        <ele>160.661</ele>
        <time>2018-09-16T09:22:38Z</time>
      </trkpt>
      <trkpt lat="48.6185" lon="5.01179">
        <ele>156.697</ele>
        <time>2018-09-16T09:22:43Z</time>
      </trkpt>
      <trkpt lat="48.61808" lon="5.01173">
        <ele>154.274</ele>
        <time>2018-09-16T09:22:48Z</time>
      </trkpt>
      <trkpt lat="48.61768" lon="5.01165">
        <ele>153.239</ele>
        <time>2018-09-16T09:22:53Z</time>
      </trkpt>
      <trkpt lat="48.61753" lon="5.01164">
        <ele>153.04</ele>
        <time>2018-09-16T09:22:58Z</time>
      </trkpt>
      <trkpt lat="48.61763" lon="5.01201">
        <ele>151.622</ele>
        <time>2018-09-16T09:23:29Z</time>
      </trkpt>
      <trkpt lat="48.61763" lon="5.01201">
        <ele>151.402</ele>
        <time>2018-09-16T09:23:32Z</time>
      </trkpt>
    </trkseg>
  </trk>
</gpx>